<?xml version="1.0" encoding="UTF-8" standalone="no" ?>
<gpx xmlns="http://www.topografix.com/GPX/1/1" xmlns:xsi="http://www.w3.org/2001/XMLSchema-instance" xsi:schemaLocation="http://www.topografix.com/GPX/1/1 http://www.topografix.com/GPX/1/1/gpx.xsd" version="1.1" creator="VisuGPX - https://www.visugpx.com">
  <metadata>
    <name>Pic du Néouvielle en boucle</name>
    <desc><![CDATA[Pic du Néouvielle sur 2 jours en ski de randonnée. Départ de "Chez Louisette" et nuit au refuge de La Glère. 
Retour par la horquette d'Aubert et le vallon Dets Coubous jusqu'au parking de Tournaboup.]]></desc>
  </metadata>
  <trk>
    <name><![CDATA[20180418084149-GnZwP]]></name>
    <trkseg>
      <trkpt lat="42.85795" lon="0.0907">
        <ele>2148</ele>
        <time>2018-04-17T05:06:11Z</time>
      </trkpt>
      <trkpt lat="42.85796" lon="0.0907">
        <ele>2148</ele>
      </trkpt>
      <trkpt lat="42.85777" lon="0.09073">
        <ele>2152</ele>
        <time>2018-04-17T05:06:48Z</time>
      </trkpt>
      <trkpt lat="42.85762" lon="0.09087">
        <ele>2163</ele>
        <time>2018-04-17T05:07:14Z</time>
      </trkpt>
      <trkpt lat="42.85746" lon="0.091">
        <ele>2168</ele>
        <time>2018-04-17T05:07:42Z</time>
      </trkpt>
      <trkpt lat="42.85729" lon="0.09109">
        <ele>2169</ele>
        <time>2018-04-17T05:08:07Z</time>
      </trkpt>
      <trkpt lat="42.85712" lon="0.09118">
        <ele>2170</ele>
        <time>2018-04-17T05:08:40Z</time>
      </trkpt>
      <trkpt lat="42.85697" lon="0.09132">
        <ele>2171</ele>
        <time>2018-04-17T05:09:09Z</time>
      </trkpt>
      <trkpt lat="42.8568" lon="0.0914">
        <ele>2173</ele>
        <time>2018-04-17T05:09:40Z</time>
      </trkpt>
      <trkpt lat="42.85663" lon="0.09148">
        <ele>2175</ele>
        <time>2018-04-17T05:10:13Z</time>
      </trkpt>
      <trkpt lat="42.85647" lon="0.09162">
        <ele>2175</ele>
        <time>2018-04-17T05:10:32Z</time>
      </trkpt>
      <trkpt lat="42.85631" lon="0.09175">
        <ele>2184</ele>
        <time>2018-04-17T05:10:57Z</time>
      </trkpt>
      <trkpt lat="42.85616" lon="0.0919">
        <ele>2185</ele>
        <time>2018-04-17T05:11:24Z</time>
      </trkpt>
      <trkpt lat="42.85601" lon="0.09204">
        <ele>2187</ele>
        <time>2018-04-17T05:11:46Z</time>
      </trkpt>
      <trkpt lat="42.85584" lon="0.09215">
        <ele>2189</ele>
        <time>2018-04-17T05:12:09Z</time>
      </trkpt>
      <trkpt lat="42.8557" lon="0.09231">
        <ele>2195</ele>
        <time>2018-04-17T05:12:44Z</time>
      </trkpt>
      <trkpt lat="42.85555" lon="0.09248">
        <ele>2196</ele>
        <time>2018-04-17T05:13:10Z</time>
      </trkpt>
      <trkpt lat="42.85538" lon="0.09254">
        <ele>2205</ele>
        <time>2018-04-17T05:13:38Z</time>
      </trkpt>
      <trkpt lat="42.85519" lon="0.09257">
        <ele>2205</ele>
        <time>2018-04-17T05:14:58Z</time>
      </trkpt>
      <trkpt lat="42.85503" lon="0.09269">
        <ele>2206</ele>
        <time>2018-04-17T05:15:18Z</time>
      </trkpt>
      <trkpt lat="42.85487" lon="0.09282">
        <ele>2210</ele>
        <time>2018-04-17T05:15:48Z</time>
      </trkpt>
      <trkpt lat="42.85469" lon="0.09287">
        <ele>2212</ele>
        <time>2018-04-17T05:16:14Z</time>
      </trkpt>
      <trkpt lat="42.85454" lon="0.09301">
        <ele>2214</ele>
        <time>2018-04-17T05:16:40Z</time>
      </trkpt>
      <trkpt lat="42.85441" lon="0.09319">
        <ele>2217</ele>
        <time>2018-04-17T05:17:10Z</time>
      </trkpt>
      <trkpt lat="42.85427" lon="0.09336">
        <ele>2227</ele>
        <time>2018-04-17T05:17:44Z</time>
      </trkpt>
      <trkpt lat="42.85409" lon="0.09343">
        <ele>2233</ele>
        <time>2018-04-17T05:18:53Z</time>
      </trkpt>
      <trkpt lat="42.85398" lon="0.09365">
        <ele>2240</ele>
        <time>2018-04-17T05:19:19Z</time>
      </trkpt>
      <trkpt lat="42.85391" lon="0.09388">
        <ele>2243</ele>
        <time>2018-04-17T05:20:01Z</time>
      </trkpt>
      <trkpt lat="42.85391" lon="0.09414">
        <ele>2245</ele>
        <time>2018-04-17T05:20:43Z</time>
      </trkpt>
      <trkpt lat="42.85389" lon="0.09439">
        <ele>2261</ele>
        <time>2018-04-17T05:21:19Z</time>
      </trkpt>
      <trkpt lat="42.85385" lon="0.09463">
        <ele>2265</ele>
        <time>2018-04-17T05:21:58Z</time>
      </trkpt>
      <trkpt lat="42.85369" lon="0.09477">
        <ele>2269</ele>
        <time>2018-04-17T05:23:13Z</time>
      </trkpt>
      <trkpt lat="42.85358" lon="0.09497">
        <ele>2273</ele>
        <time>2018-04-17T05:23:49Z</time>
      </trkpt>
      <trkpt lat="42.85352" lon="0.09521">
        <ele>2285</ele>
        <time>2018-04-17T05:24:19Z</time>
      </trkpt>
      <trkpt lat="42.85344" lon="0.09543">
        <ele>2288</ele>
        <time>2018-04-17T05:24:56Z</time>
      </trkpt>
      <trkpt lat="42.85348" lon="0.09568">
        <ele>2292</ele>
        <time>2018-04-17T05:25:35Z</time>
      </trkpt>
      <trkpt lat="42.85342" lon="0.09591">
        <ele>2302</ele>
        <time>2018-04-17T05:26:18Z</time>
      </trkpt>
      <trkpt lat="42.85333" lon="0.09613">
        <ele>2311</ele>
        <time>2018-04-17T05:26:57Z</time>
      </trkpt>
      <trkpt lat="42.85327" lon="0.09637">
        <ele>2314</ele>
        <time>2018-04-17T05:27:32Z</time>
      </trkpt>
      <trkpt lat="42.85321" lon="0.0966">
        <ele>2314</ele>
        <time>2018-04-17T05:28:07Z</time>
      </trkpt>
      <trkpt lat="42.85307" lon="0.09676">
        <ele>2322</ele>
        <time>2018-04-17T05:28:42Z</time>
      </trkpt>
      <trkpt lat="42.85303" lon="0.097">
        <ele>2324</ele>
        <time>2018-04-17T05:29:09Z</time>
      </trkpt>
      <trkpt lat="42.85299" lon="0.09724">
        <ele>2325</ele>
        <time>2018-04-17T05:29:34Z</time>
      </trkpt>
      <trkpt lat="42.85291" lon="0.09747">
        <ele>2327</ele>
        <time>2018-04-17T05:29:58Z</time>
      </trkpt>
      <trkpt lat="42.85282" lon="0.09769">
        <ele>2330</ele>
        <time>2018-04-17T05:30:23Z</time>
      </trkpt>
      <trkpt lat="42.85272" lon="0.0979">
        <ele>2330</ele>
        <time>2018-04-17T05:35:53Z</time>
      </trkpt>
      <trkpt lat="42.8526" lon="0.0981">
        <ele>2331</ele>
        <time>2018-04-17T05:36:16Z</time>
      </trkpt>
      <trkpt lat="42.8525" lon="0.09831">
        <ele>2335</ele>
        <time>2018-04-17T05:36:35Z</time>
      </trkpt>
      <trkpt lat="42.85243" lon="0.09854">
        <ele>2338</ele>
        <time>2018-04-17T05:36:59Z</time>
      </trkpt>
      <trkpt lat="42.85239" lon="0.09878">
        <ele>2338</ele>
        <time>2018-04-17T05:37:20Z</time>
      </trkpt>
      <trkpt lat="42.85234" lon="0.09902">
        <ele>2337</ele>
        <time>2018-04-17T05:37:40Z</time>
      </trkpt>
      <trkpt lat="42.85226" lon="0.09924">
        <ele>2336</ele>
        <time>2018-04-17T05:38:01Z</time>
      </trkpt>
      <trkpt lat="42.85217" lon="0.09946">
        <ele>2338</ele>
        <time>2018-04-17T05:38:22Z</time>
      </trkpt>
      <trkpt lat="42.85206" lon="0.09967">
        <ele>2339</ele>
        <time>2018-04-17T05:38:40Z</time>
      </trkpt>
      <trkpt lat="42.85199" lon="0.0999">
        <ele>2339</ele>
        <time>2018-04-17T05:39:06Z</time>
      </trkpt>
      <trkpt lat="42.8519" lon="0.10012">
        <ele>2340</ele>
        <time>2018-04-17T05:39:33Z</time>
      </trkpt>
      <trkpt lat="42.85178" lon="0.1003">
        <ele>2340</ele>
        <time>2018-04-17T05:39:52Z</time>
      </trkpt>
      <trkpt lat="42.85172" lon="0.10053">
        <ele>2340</ele>
        <time>2018-04-17T05:40:24Z</time>
      </trkpt>
      <trkpt lat="42.85181" lon="0.10075">
        <ele>2340</ele>
        <time>2018-04-17T05:40:48Z</time>
      </trkpt>
      <trkpt lat="42.85187" lon="0.10099">
        <ele>2340</ele>
        <time>2018-04-17T05:41:10Z</time>
      </trkpt>
      <trkpt lat="42.85182" lon="0.10123">
        <ele>2340</ele>
        <time>2018-04-17T05:41:35Z</time>
      </trkpt>
      <trkpt lat="42.85173" lon="0.10145">
        <ele>2342</ele>
        <time>2018-04-17T05:41:53Z</time>
      </trkpt>
      <trkpt lat="42.85165" lon="0.10167">
        <ele>2348</ele>
        <time>2018-04-17T05:42:13Z</time>
      </trkpt>
      <trkpt lat="42.85156" lon="0.10189">
        <ele>2347</ele>
        <time>2018-04-17T05:42:35Z</time>
      </trkpt>
      <trkpt lat="42.85146" lon="0.10211">
        <ele>2347</ele>
        <time>2018-04-17T05:42:56Z</time>
      </trkpt>
      <trkpt lat="42.85139" lon="0.10234">
        <ele>2347</ele>
        <time>2018-04-17T05:43:20Z</time>
      </trkpt>
      <trkpt lat="42.85129" lon="0.10255">
        <ele>2346</ele>
        <time>2018-04-17T05:43:36Z</time>
      </trkpt>
      <trkpt lat="42.85123" lon="0.10279">
        <ele>2346</ele>
        <time>2018-04-17T05:44:00Z</time>
      </trkpt>
      <trkpt lat="42.85117" lon="0.10302">
        <ele>2346</ele>
        <time>2018-04-17T05:44:20Z</time>
      </trkpt>
      <trkpt lat="42.85108" lon="0.10324">
        <ele>2348</ele>
        <time>2018-04-17T05:44:44Z</time>
      </trkpt>
      <trkpt lat="42.85099" lon="0.10346">
        <ele>2349</ele>
        <time>2018-04-17T05:45:10Z</time>
      </trkpt>
      <trkpt lat="42.85087" lon="0.10365">
        <ele>2350</ele>
        <time>2018-04-17T05:45:34Z</time>
      </trkpt>
      <trkpt lat="42.85072" lon="0.10381">
        <ele>2360</ele>
        <time>2018-04-17T05:46:00Z</time>
      </trkpt>
      <trkpt lat="42.8506" lon="0.10398">
        <ele>2361</ele>
        <time>2018-04-17T05:46:22Z</time>
      </trkpt>
      <trkpt lat="42.85045" lon="0.10413">
        <ele>2362</ele>
        <time>2018-04-17T05:46:48Z</time>
      </trkpt>
      <trkpt lat="42.85028" lon="0.10422">
        <ele>2370</ele>
        <time>2018-04-17T05:47:12Z</time>
      </trkpt>
      <trkpt lat="42.85011" lon="0.10433">
        <ele>2370</ele>
        <time>2018-04-17T05:47:38Z</time>
      </trkpt>
      <trkpt lat="42.84994" lon="0.10442">
        <ele>2374</ele>
        <time>2018-04-17T05:48:10Z</time>
      </trkpt>
      <trkpt lat="42.84979" lon="0.10456">
        <ele>2375</ele>
        <time>2018-04-17T05:48:34Z</time>
      </trkpt>
      <trkpt lat="42.84965" lon="0.10473">
        <ele>2376</ele>
        <time>2018-04-17T05:48:58Z</time>
      </trkpt>
      <trkpt lat="42.8495" lon="0.10488">
        <ele>2377</ele>
        <time>2018-04-17T05:49:22Z</time>
      </trkpt>
      <trkpt lat="42.84937" lon="0.10505">
        <ele>2379</ele>
        <time>2018-04-17T05:49:43Z</time>
      </trkpt>
      <trkpt lat="42.84921" lon="0.10517">
        <ele>2379</ele>
        <time>2018-04-17T05:50:07Z</time>
      </trkpt>
      <trkpt lat="42.84906" lon="0.10532">
        <ele>2385</ele>
        <time>2018-04-17T05:50:28Z</time>
      </trkpt>
      <trkpt lat="42.84892" lon="0.10546">
        <ele>2386</ele>
        <time>2018-04-17T05:50:54Z</time>
      </trkpt>
      <trkpt lat="42.84876" lon="0.10558">
        <ele>2387</ele>
        <time>2018-04-17T05:51:17Z</time>
      </trkpt>
      <trkpt lat="42.84859" lon="0.10569">
        <ele>2388</ele>
        <time>2018-04-17T05:51:46Z</time>
      </trkpt>
      <trkpt lat="42.84841" lon="0.10565">
        <ele>2389</ele>
        <time>2018-04-17T05:52:18Z</time>
      </trkpt>
      <trkpt lat="42.84823" lon="0.1057">
        <ele>2403</ele>
        <time>2018-04-17T05:52:44Z</time>
      </trkpt>
      <trkpt lat="42.8481" lon="0.10588">
        <ele>2399</ele>
        <time>2018-04-17T05:53:13Z</time>
      </trkpt>
      <trkpt lat="42.84796" lon="0.10605">
        <ele>2403</ele>
        <time>2018-04-17T05:53:40Z</time>
      </trkpt>
      <trkpt lat="42.8478" lon="0.10617">
        <ele>2407</ele>
        <time>2018-04-17T05:54:28Z</time>
      </trkpt>
      <trkpt lat="42.84772" lon="0.1064">
        <ele>2406</ele>
        <time>2018-04-17T05:54:59Z</time>
      </trkpt>
      <trkpt lat="42.84769" lon="0.10666">
        <ele>2407</ele>
        <time>2018-04-17T05:55:30Z</time>
      </trkpt>
      <trkpt lat="42.84761" lon="0.10687">
        <ele>2406</ele>
        <time>2018-04-17T05:56:09Z</time>
      </trkpt>
      <trkpt lat="42.84747" lon="0.10704">
        <ele>2427</ele>
        <time>2018-04-17T05:56:45Z</time>
      </trkpt>
      <trkpt lat="42.84732" lon="0.10718">
        <ele>2429</ele>
        <time>2018-04-17T05:57:14Z</time>
      </trkpt>
      <trkpt lat="42.84715" lon="0.10727">
        <ele>2432</ele>
        <time>2018-04-17T05:57:50Z</time>
      </trkpt>
      <trkpt lat="42.84708" lon="0.1075">
        <ele>2432</ele>
        <time>2018-04-17T05:58:28Z</time>
      </trkpt>
      <trkpt lat="42.84701" lon="0.10774">
        <ele>2440</ele>
        <time>2018-04-17T05:58:55Z</time>
      </trkpt>
      <trkpt lat="42.84707" lon="0.10797">
        <ele>2441</ele>
        <time>2018-04-17T05:59:14Z</time>
      </trkpt>
      <trkpt lat="42.84712" lon="0.10821">
        <ele>2444</ele>
        <time>2018-04-17T05:59:35Z</time>
      </trkpt>
      <trkpt lat="42.84693" lon="0.10821">
        <ele>2444</ele>
        <time>2018-04-17T05:59:54Z</time>
      </trkpt>
      <trkpt lat="42.84682" lon="0.10843">
        <ele>2456</ele>
        <time>2018-04-17T06:00:32Z</time>
      </trkpt>
      <trkpt lat="42.84676" lon="0.10867">
        <ele>2461</ele>
        <time>2018-04-17T06:01:00Z</time>
      </trkpt>
      <trkpt lat="42.84672" lon="0.10892">
        <ele>2464</ele>
        <time>2018-04-17T06:01:22Z</time>
      </trkpt>
      <trkpt lat="42.8466" lon="0.10912">
        <ele>2466</ele>
        <time>2018-04-17T06:01:50Z</time>
      </trkpt>
      <trkpt lat="42.84651" lon="0.10933">
        <ele>2472</ele>
        <time>2018-04-17T06:02:11Z</time>
      </trkpt>
      <trkpt lat="42.84637" lon="0.1095">
        <ele>2474</ele>
        <time>2018-04-17T06:02:37Z</time>
      </trkpt>
      <trkpt lat="42.84626" lon="0.10969">
        <ele>2475</ele>
        <time>2018-04-17T06:03:07Z</time>
      </trkpt>
      <trkpt lat="42.84615" lon="0.10991">
        <ele>2475</ele>
        <time>2018-04-17T06:03:45Z</time>
      </trkpt>
      <trkpt lat="42.84601" lon="0.11005">
        <ele>2483</ele>
        <time>2018-04-17T06:04:16Z</time>
      </trkpt>
      <trkpt lat="42.84583" lon="0.11008">
        <ele>2477</ele>
        <time>2018-04-17T06:04:40Z</time>
      </trkpt>
      <trkpt lat="42.84581" lon="0.11033">
        <ele>2484</ele>
        <time>2018-04-17T06:05:12Z</time>
      </trkpt>
      <trkpt lat="42.84585" lon="0.11057">
        <ele>2492</ele>
        <time>2018-04-17T06:05:32Z</time>
      </trkpt>
      <trkpt lat="42.84566" lon="0.11056">
        <ele>2488</ele>
        <time>2018-04-17T06:06:01Z</time>
      </trkpt>
      <trkpt lat="42.84548" lon="0.11057">
        <ele>2488</ele>
        <time>2018-04-17T06:06:42Z</time>
      </trkpt>
      <trkpt lat="42.84532" lon="0.11068">
        <ele>2490</ele>
        <time>2018-04-17T06:07:16Z</time>
      </trkpt>
      <trkpt lat="42.84515" lon="0.11078">
        <ele>2493</ele>
        <time>2018-04-17T06:07:47Z</time>
      </trkpt>
      <trkpt lat="42.84498" lon="0.11086">
        <ele>2501</ele>
        <time>2018-04-17T06:08:10Z</time>
      </trkpt>
      <trkpt lat="42.8448" lon="0.11089">
        <ele>2507</ele>
        <time>2018-04-17T06:08:37Z</time>
      </trkpt>
      <trkpt lat="42.84461" lon="0.11092">
        <ele>2510</ele>
        <time>2018-04-17T06:09:04Z</time>
      </trkpt>
      <trkpt lat="42.84444" lon="0.11102">
        <ele>2512</ele>
        <time>2018-04-17T06:09:42Z</time>
      </trkpt>
      <trkpt lat="42.84428" lon="0.11114">
        <ele>2514</ele>
        <time>2018-04-17T06:10:11Z</time>
      </trkpt>
      <trkpt lat="42.84411" lon="0.11124">
        <ele>2525</ele>
        <time>2018-04-17T06:10:41Z</time>
      </trkpt>
      <trkpt lat="42.84392" lon="0.11116">
        <ele>2525</ele>
        <time>2018-04-17T06:11:05Z</time>
      </trkpt>
      <trkpt lat="42.84375" lon="0.11122">
        <ele>2528</ele>
        <time>2018-04-17T06:12:31Z</time>
      </trkpt>
      <trkpt lat="42.84393" lon="0.11122">
        <ele>2526</ele>
        <time>2018-04-17T06:14:52Z</time>
      </trkpt>
      <trkpt lat="42.84382" lon="0.11141">
        <ele>2530</ele>
        <time>2018-04-17T06:21:20Z</time>
      </trkpt>
      <trkpt lat="42.84365" lon="0.11154">
        <ele>2535</ele>
        <time>2018-04-17T06:21:49Z</time>
      </trkpt>
      <trkpt lat="42.84348" lon="0.11141">
        <ele>2536</ele>
        <time>2018-04-17T06:22:23Z</time>
      </trkpt>
      <trkpt lat="42.84345" lon="0.11165">
        <ele>2546</ele>
        <time>2018-04-17T06:23:33Z</time>
      </trkpt>
      <trkpt lat="42.84346" lon="0.11192">
        <ele>2546</ele>
        <time>2018-04-17T06:24:21Z</time>
      </trkpt>
      <trkpt lat="42.84328" lon="0.11185">
        <ele>2557</ele>
        <time>2018-04-17T06:25:10Z</time>
      </trkpt>
      <trkpt lat="42.84311" lon="0.11174">
        <ele>2557</ele>
        <time>2018-04-17T06:25:46Z</time>
      </trkpt>
      <trkpt lat="42.8431" lon="0.112">
        <ele>2557</ele>
        <time>2018-04-17T06:27:08Z</time>
      </trkpt>
      <trkpt lat="42.84293" lon="0.1119">
        <ele>2557</ele>
        <time>2018-04-17T06:27:52Z</time>
      </trkpt>
      <trkpt lat="42.84278" lon="0.11175">
        <ele>2557</ele>
        <time>2018-04-17T06:28:41Z</time>
      </trkpt>
      <trkpt lat="42.84262" lon="0.11163">
        <ele>2542</ele>
        <time>2018-04-17T06:30:46Z</time>
      </trkpt>
      <trkpt lat="42.84263" lon="0.11188">
        <ele>2557</ele>
        <time>2018-04-17T06:31:32Z</time>
      </trkpt>
      <trkpt lat="42.84249" lon="0.11171">
        <ele>2598.6</ele>
        <time>2018-04-17T06:32:43Z</time>
      </trkpt>
      <trkpt lat="42.84251" lon="0.11196">
        <ele>2557</ele>
        <time>2018-04-17T06:33:47Z</time>
      </trkpt>
      <trkpt lat="42.84238" lon="0.11178">
        <ele>2610</ele>
        <time>2018-04-17T06:34:31Z</time>
      </trkpt>
      <trkpt lat="42.84219" lon="0.1117">
        <ele>2627.2</ele>
        <time>2018-04-17T06:36:27Z</time>
      </trkpt>
      <trkpt lat="42.84208" lon="0.1115">
        <ele>2635.1</ele>
        <time>2018-04-17T06:37:03Z</time>
      </trkpt>
      <trkpt lat="42.84194" lon="0.11135">
        <ele>2640.5</ele>
        <time>2018-04-17T06:37:52Z</time>
      </trkpt>
      <trkpt lat="42.84175" lon="0.11131">
        <ele>2644.3</ele>
        <time>2018-04-17T06:44:02Z</time>
      </trkpt>
      <trkpt lat="42.84157" lon="0.11135">
        <ele>2646.7</ele>
        <time>2018-04-17T06:44:36Z</time>
      </trkpt>
      <trkpt lat="42.84164" lon="0.11159">
        <ele>2650.6</ele>
        <time>2018-04-17T06:45:07Z</time>
      </trkpt>
      <trkpt lat="42.84163" lon="0.11184">
        <ele>2654.9</ele>
        <time>2018-04-17T06:46:40Z</time>
      </trkpt>
      <trkpt lat="42.84165" lon="0.11209">
        <ele>2658.8</ele>
        <time>2018-04-17T06:47:11Z</time>
      </trkpt>
      <trkpt lat="42.84166" lon="0.11234">
        <ele>2663.2</ele>
        <time>2018-04-17T06:47:46Z</time>
      </trkpt>
      <trkpt lat="42.84162" lon="0.11258">
        <ele>2667.2</ele>
        <time>2018-04-17T06:48:16Z</time>
      </trkpt>
      <trkpt lat="42.84161" lon="0.11283">
        <ele>2669.5</ele>
        <time>2018-04-17T06:48:41Z</time>
      </trkpt>
      <trkpt lat="42.84158" lon="0.11309">
        <ele>2671.3</ele>
        <time>2018-04-17T06:49:10Z</time>
      </trkpt>
      <trkpt lat="42.84153" lon="0.11334">
        <ele>2674</ele>
        <time>2018-04-17T06:49:47Z</time>
      </trkpt>
      <trkpt lat="42.84155" lon="0.11358">
        <ele>2675.9</ele>
        <time>2018-04-17T06:50:16Z</time>
      </trkpt>
      <trkpt lat="42.84166" lon="0.11378">
        <ele>2675.8</ele>
        <time>2018-04-17T06:50:51Z</time>
      </trkpt>
      <trkpt lat="42.84165" lon="0.11404">
        <ele>2681.7</ele>
        <time>2018-04-17T06:51:26Z</time>
      </trkpt>
      <trkpt lat="42.84175" lon="0.11425">
        <ele>2683.6</ele>
        <time>2018-04-17T06:52:09Z</time>
      </trkpt>
      <trkpt lat="42.84178" lon="0.1145">
        <ele>2690.5</ele>
        <time>2018-04-17T06:52:41Z</time>
      </trkpt>
      <trkpt lat="42.84181" lon="0.11477">
        <ele>2705.6</ele>
        <time>2018-04-17T06:53:15Z</time>
      </trkpt>
      <trkpt lat="42.84167" lon="0.11492">
        <ele>2712</ele>
        <time>2018-04-17T06:54:29Z</time>
      </trkpt>
      <trkpt lat="42.84148" lon="0.11496">
        <ele>2722.1</ele>
        <time>2018-04-17T06:54:57Z</time>
      </trkpt>
      <trkpt lat="42.84144" lon="0.11522">
        <ele>2819</ele>
        <time>2018-04-17T06:57:33Z</time>
      </trkpt>
      <trkpt lat="42.84129" lon="0.11537">
        <ele>2819</ele>
        <time>2018-04-17T07:01:37Z</time>
      </trkpt>
      <trkpt lat="42.84149" lon="0.11538">
        <ele>2819</ele>
        <time>2018-04-17T07:02:43Z</time>
      </trkpt>
      <trkpt lat="42.84166" lon="0.11548">
        <ele>2819</ele>
        <time>2018-04-17T07:03:59Z</time>
      </trkpt>
      <trkpt lat="42.84177" lon="0.1157">
        <ele>2770.5</ele>
        <time>2018-04-17T07:09:44Z</time>
      </trkpt>
      <trkpt lat="42.8417" lon="0.11593">
        <ele>2779.5</ele>
        <time>2018-04-17T07:14:39Z</time>
      </trkpt>
      <trkpt lat="42.84183" lon="0.11611">
        <ele>2789.1</ele>
        <time>2018-04-17T07:18:06Z</time>
      </trkpt>
      <trkpt lat="42.84184" lon="0.11636">
        <ele>2784.4</ele>
        <time>2018-04-17T07:38:15Z</time>
      </trkpt>
      <trkpt lat="42.84192" lon="0.11658">
        <ele>2781</ele>
        <time>2018-04-17T07:38:20Z</time>
      </trkpt>
      <trkpt lat="42.84174" lon="0.11662">
        <ele>2768.3</ele>
        <time>2018-04-17T07:41:30Z</time>
      </trkpt>
      <trkpt lat="42.84155" lon="0.11665">
        <ele>2819</ele>
        <time>2018-04-17T07:41:54Z</time>
      </trkpt>
      <trkpt lat="42.84171" lon="0.11678">
        <ele>2760.7</ele>
        <time>2018-04-17T07:42:25Z</time>
      </trkpt>
      <trkpt lat="42.84153" lon="0.1168">
        <ele>2751.8</ele>
        <time>2018-04-17T07:44:19Z</time>
      </trkpt>
      <trkpt lat="42.84139" lon="0.11661">
        <ele>2819</ele>
        <time>2018-04-17T07:44:59Z</time>
      </trkpt>
      <trkpt lat="42.8412" lon="0.11657">
        <ele>2819</ele>
        <time>2018-04-17T07:45:37Z</time>
      </trkpt>
      <trkpt lat="42.84102" lon="0.11663">
        <ele>2819</ele>
        <time>2018-04-17T07:46:25Z</time>
      </trkpt>
      <trkpt lat="42.84084" lon="0.11661">
        <ele>2819</ele>
        <time>2018-04-17T07:46:58Z</time>
      </trkpt>
      <trkpt lat="42.84065" lon="0.11665">
        <ele>2827</ele>
        <time>2018-04-17T07:47:31Z</time>
      </trkpt>
      <trkpt lat="42.84047" lon="0.11669">
        <ele>2760.2</ele>
        <time>2018-04-17T07:48:07Z</time>
      </trkpt>
      <trkpt lat="42.84028" lon="0.11668">
        <ele>2762.6</ele>
        <time>2018-04-17T07:48:33Z</time>
      </trkpt>
      <trkpt lat="42.8401" lon="0.11662">
        <ele>2829</ele>
        <time>2018-04-17T07:49:02Z</time>
      </trkpt>
      <trkpt lat="42.83994" lon="0.11647">
        <ele>2830</ele>
        <time>2018-04-17T07:49:36Z</time>
      </trkpt>
      <trkpt lat="42.83983" lon="0.11628">
        <ele>2830</ele>
        <time>2018-04-17T07:50:07Z</time>
      </trkpt>
      <trkpt lat="42.83965" lon="0.11632">
        <ele>2829</ele>
        <time>2018-04-17T07:51:17Z</time>
      </trkpt>
      <trkpt lat="42.83949" lon="0.11617">
        <ele>2827</ele>
        <time>2018-04-17T07:54:36Z</time>
      </trkpt>
      <trkpt lat="42.83936" lon="0.11599">
        <ele>2825</ele>
        <time>2018-04-17T07:55:08Z</time>
      </trkpt>
      <trkpt lat="42.83919" lon="0.1159">
        <ele>2822</ele>
        <time>2018-04-17T07:55:59Z</time>
      </trkpt>
      <trkpt lat="42.83901" lon="0.11589">
        <ele>2834</ele>
        <time>2018-04-17T07:56:48Z</time>
      </trkpt>
      <trkpt lat="42.83901" lon="0.11564">
        <ele>2839</ele>
        <time>2018-04-17T07:57:14Z</time>
      </trkpt>
      <trkpt lat="42.83898" lon="0.11538">
        <ele>2846</ele>
        <time>2018-04-17T07:57:49Z</time>
      </trkpt>
      <trkpt lat="42.83883" lon="0.11522">
        <ele>2848</ele>
        <time>2018-04-17T07:59:08Z</time>
      </trkpt>
      <trkpt lat="42.83865" lon="0.11516">
        <ele>2850</ele>
        <time>2018-04-17T07:59:56Z</time>
      </trkpt>
      <trkpt lat="42.83857" lon="0.11493">
        <ele>2860</ele>
        <time>2018-04-17T08:00:56Z</time>
      </trkpt>
      <trkpt lat="42.83856" lon="0.11468">
        <ele>2862</ele>
        <time>2018-04-17T08:01:30Z</time>
      </trkpt>
      <trkpt lat="42.83863" lon="0.11446">
        <ele>2865</ele>
        <time>2018-04-17T08:02:18Z</time>
      </trkpt>
      <trkpt lat="42.83847" lon="0.11432">
        <ele>2868</ele>
        <time>2018-04-17T08:03:19Z</time>
      </trkpt>
      <trkpt lat="42.8383" lon="0.11423">
        <ele>2880</ele>
        <time>2018-04-17T08:04:11Z</time>
      </trkpt>
      <trkpt lat="42.83832" lon="0.11398">
        <ele>2902</ele>
        <time>2018-04-17T08:04:54Z</time>
      </trkpt>
      <trkpt lat="42.83837" lon="0.11372">
        <ele>2897</ele>
        <time>2018-04-17T08:05:40Z</time>
      </trkpt>
      <trkpt lat="42.83819" lon="0.11372">
        <ele>2919</ele>
        <time>2018-04-17T08:07:51Z</time>
      </trkpt>
      <trkpt lat="42.83801" lon="0.11379">
        <ele>2922</ele>
        <time>2018-04-17T08:08:38Z</time>
      </trkpt>
      <trkpt lat="42.83785" lon="0.11389">
        <ele>2926</ele>
        <time>2018-04-17T08:09:45Z</time>
      </trkpt>
      <trkpt lat="42.8377" lon="0.11404">
        <ele>2930</ele>
        <time>2018-04-17T08:10:58Z</time>
      </trkpt>
      <trkpt lat="42.83752" lon="0.11418">
        <ele>2937</ele>
        <time>2018-04-17T08:13:38Z</time>
      </trkpt>
      <trkpt lat="42.83738" lon="0.11435">
        <ele>2948</ele>
        <time>2018-04-17T08:15:22Z</time>
      </trkpt>
      <trkpt lat="42.83722" lon="0.11452">
        <ele>2951</ele>
        <time>2018-04-17T08:16:15Z</time>
      </trkpt>
      <trkpt lat="42.83709" lon="0.11469">
        <ele>2953</ele>
        <time>2018-04-17T08:17:22Z</time>
      </trkpt>
      <trkpt lat="42.83691" lon="0.11463">
        <ele>2958</ele>
        <time>2018-04-17T08:19:10Z</time>
      </trkpt>
      <trkpt lat="42.83684" lon="0.1144">
        <ele>2962</ele>
        <time>2018-04-17T08:19:48Z</time>
      </trkpt>
      <trkpt lat="42.83667" lon="0.11447">
        <ele>2964</ele>
        <time>2018-04-17T08:22:49Z</time>
      </trkpt>
      <trkpt lat="42.83656" lon="0.11427">
        <ele>2978</ele>
        <time>2018-04-17T08:24:09Z</time>
      </trkpt>
      <trkpt lat="42.8364" lon="0.1144">
        <ele>2977</ele>
        <time>2018-04-17T08:25:57Z</time>
      </trkpt>
      <trkpt lat="42.83623" lon="0.11449">
        <ele>2977</ele>
        <time>2018-04-17T08:28:34Z</time>
      </trkpt>
      <trkpt lat="42.8361" lon="0.11466">
        <ele>2976</ele>
        <time>2018-04-17T08:29:29Z</time>
      </trkpt>
      <trkpt lat="42.83598" lon="0.11447">
        <ele>2977</ele>
        <time>2018-04-17T08:31:05Z</time>
      </trkpt>
      <trkpt lat="42.83584" lon="0.11463">
        <ele>2976</ele>
        <time>2018-04-17T08:33:33Z</time>
      </trkpt>
      <trkpt lat="42.83571" lon="0.11482">
        <ele>2963</ele>
        <time>2018-04-17T08:34:13Z</time>
      </trkpt>
      <trkpt lat="42.83574" lon="0.11456">
        <ele>2960</ele>
        <time>2018-04-17T08:35:02Z</time>
      </trkpt>
      <trkpt lat="42.83559" lon="0.1147">
        <ele>2958</ele>
        <time>2018-04-17T08:38:04Z</time>
      </trkpt>
      <trkpt lat="42.83541" lon="0.11479">
        <ele>2955</ele>
        <time>2018-04-17T09:03:17Z</time>
      </trkpt>
      <trkpt lat="42.8354" lon="0.11506">
        <ele>2962</ele>
        <time>2018-04-17T09:18:48Z</time>
      </trkpt>
      <trkpt lat="42.83549" lon="0.11483">
        <ele>2957</ele>
        <time>2018-04-17T09:57:29Z</time>
      </trkpt>
      <trkpt lat="42.83561" lon="0.11465">
        <ele>2958</ele>
        <time>2018-04-17T09:58:44Z</time>
      </trkpt>
      <trkpt lat="42.83575" lon="0.11449">
        <ele>2961</ele>
        <time>2018-04-17T10:16:54Z</time>
      </trkpt>
      <trkpt lat="42.83593" lon="0.11435">
        <ele>2978</ele>
        <time>2018-04-17T10:18:36Z</time>
      </trkpt>
      <trkpt lat="42.8361" lon="0.11424">
        <ele>2977</ele>
        <time>2018-04-17T10:18:46Z</time>
      </trkpt>
      <trkpt lat="42.83622" lon="0.11397">
        <ele>2967</ele>
        <time>2018-04-17T10:18:51Z</time>
      </trkpt>
      <trkpt lat="42.83628" lon="0.11371">
        <ele>2964</ele>
        <time>2018-04-17T10:18:54Z</time>
      </trkpt>
      <trkpt lat="42.83646" lon="0.11382">
        <ele>2969</ele>
        <time>2018-04-17T10:20:06Z</time>
      </trkpt>
      <trkpt lat="42.83666" lon="0.11381">
        <ele>2971</ele>
        <time>2018-04-17T10:21:00Z</time>
      </trkpt>
      <trkpt lat="42.8368" lon="0.114">
        <ele>2972</ele>
        <time>2018-04-17T10:21:07Z</time>
      </trkpt>
      <trkpt lat="42.83695" lon="0.11414">
        <ele>2969</ele>
        <time>2018-04-17T10:21:15Z</time>
      </trkpt>
      <trkpt lat="42.83713" lon="0.11426">
        <ele>2955</ele>
        <time>2018-04-17T10:21:23Z</time>
      </trkpt>
      <trkpt lat="42.83731" lon="0.11434">
        <ele>2949</ele>
        <time>2018-04-17T10:21:44Z</time>
      </trkpt>
      <trkpt lat="42.8374" lon="0.11413">
        <ele>2950</ele>
        <time>2018-04-17T10:21:50Z</time>
      </trkpt>
      <trkpt lat="42.83753" lon="0.11389">
        <ele>2934</ele>
        <time>2018-04-17T10:21:56Z</time>
      </trkpt>
      <trkpt lat="42.8377" lon="0.11382">
        <ele>2931</ele>
        <time>2018-04-17T10:22:04Z</time>
      </trkpt>
      <trkpt lat="42.83789" lon="0.11377">
        <ele>2927</ele>
        <time>2018-04-17T10:22:46Z</time>
      </trkpt>
      <trkpt lat="42.83813" lon="0.11382">
        <ele>2917</ele>
        <time>2018-04-17T10:22:56Z</time>
      </trkpt>
      <trkpt lat="42.83832" lon="0.11382">
        <ele>2913</ele>
        <time>2018-04-17T10:22:58Z</time>
      </trkpt>
      <trkpt lat="42.8385" lon="0.11379">
        <ele>2894</ele>
        <time>2018-04-17T10:23:00Z</time>
      </trkpt>
      <trkpt lat="42.83871" lon="0.11382">
        <ele>2893</ele>
        <time>2018-04-17T10:23:02Z</time>
      </trkpt>
      <trkpt lat="42.8389" lon="0.11384">
        <ele>2891</ele>
        <time>2018-04-17T10:23:05Z</time>
      </trkpt>
      <trkpt lat="42.83891" lon="0.11412">
        <ele>2883</ele>
        <time>2018-04-17T10:27:34Z</time>
      </trkpt>
      <trkpt lat="42.83909" lon="0.11431">
        <ele>2866</ele>
        <time>2018-04-17T10:27:38Z</time>
      </trkpt>
      <trkpt lat="42.83913" lon="0.11457">
        <ele>2862</ele>
        <time>2018-04-17T10:27:50Z</time>
      </trkpt>
      <trkpt lat="42.83902" lon="0.11482">
        <ele>2859</ele>
        <time>2018-04-17T10:27:56Z</time>
      </trkpt>
      <trkpt lat="42.83893" lon="0.11504">
        <ele>2850</ele>
        <time>2018-04-17T10:28:02Z</time>
      </trkpt>
      <trkpt lat="42.83897" lon="0.11532">
        <ele>2847</ele>
        <time>2018-04-17T10:28:08Z</time>
      </trkpt>
      <trkpt lat="42.83907" lon="0.11554">
        <ele>2841</ele>
        <time>2018-04-17T10:28:12Z</time>
      </trkpt>
      <trkpt lat="42.83921" lon="0.11575">
        <ele>2827</ele>
        <time>2018-04-17T10:28:16Z</time>
      </trkpt>
      <trkpt lat="42.83928" lon="0.11599">
        <ele>2824</ele>
        <time>2018-04-17T10:28:20Z</time>
      </trkpt>
      <trkpt lat="42.83944" lon="0.11616">
        <ele>2827</ele>
        <time>2018-04-17T10:28:47Z</time>
      </trkpt>
      <trkpt lat="42.83963" lon="0.11634">
        <ele>2829</ele>
        <time>2018-04-17T10:28:51Z</time>
      </trkpt>
      <trkpt lat="42.83978" lon="0.11649">
        <ele>2829</ele>
        <time>2018-04-17T10:28:53Z</time>
      </trkpt>
      <trkpt lat="42.84001" lon="0.1166">
        <ele>2829</ele>
        <time>2018-04-17T10:28:56Z</time>
      </trkpt>
      <trkpt lat="42.8402" lon="0.11669">
        <ele>2763.3</ele>
        <time>2018-04-17T10:28:59Z</time>
      </trkpt>
      <trkpt lat="42.84041" lon="0.11678">
        <ele>2758.1</ele>
        <time>2018-04-17T10:29:04Z</time>
      </trkpt>
      <trkpt lat="42.8406" lon="0.11683">
        <ele>2753.2</ele>
        <time>2018-04-17T10:29:08Z</time>
      </trkpt>
      <trkpt lat="42.84078" lon="0.11697">
        <ele>2743.7</ele>
        <time>2018-04-17T10:29:13Z</time>
      </trkpt>
      <trkpt lat="42.84099" lon="0.11707">
        <ele>2737</ele>
        <time>2018-04-17T10:29:18Z</time>
      </trkpt>
      <trkpt lat="42.84121" lon="0.11715">
        <ele>2733.4</ele>
        <time>2018-04-17T10:29:23Z</time>
      </trkpt>
      <trkpt lat="42.8414" lon="0.11727">
        <ele>2731.5</ele>
        <time>2018-04-17T10:29:26Z</time>
      </trkpt>
      <trkpt lat="42.84159" lon="0.11748">
        <ele>2731.9</ele>
        <time>2018-04-17T10:29:29Z</time>
      </trkpt>
      <trkpt lat="42.84175" lon="0.11765">
        <ele>2736.9</ele>
        <time>2018-04-17T10:29:32Z</time>
      </trkpt>
      <trkpt lat="42.84187" lon="0.11785">
        <ele>2739.9</ele>
        <time>2018-04-17T10:29:37Z</time>
      </trkpt>
      <trkpt lat="42.8419" lon="0.11809">
        <ele>2736.8</ele>
        <time>2018-04-17T10:29:46Z</time>
      </trkpt>
      <trkpt lat="42.84194" lon="0.11834">
        <ele>2731.6</ele>
        <time>2018-04-17T10:29:55Z</time>
      </trkpt>
      <trkpt lat="42.84201" lon="0.11858">
        <ele>2724.7</ele>
        <time>2018-04-17T10:31:42Z</time>
      </trkpt>
      <trkpt lat="42.84198" lon="0.11885">
        <ele>2713.9</ele>
        <time>2018-04-17T10:31:47Z</time>
      </trkpt>
      <trkpt lat="42.84201" lon="0.11914">
        <ele>2704.1</ele>
        <time>2018-04-17T10:31:51Z</time>
      </trkpt>
      <trkpt lat="42.84208" lon="0.11937">
        <ele>2697.3</ele>
        <time>2018-04-17T10:31:54Z</time>
      </trkpt>
      <trkpt lat="42.84223" lon="0.11961">
        <ele>2690.2</ele>
        <time>2018-04-17T10:32:32Z</time>
      </trkpt>
      <trkpt lat="42.84235" lon="0.11979">
        <ele>2684</ele>
        <time>2018-04-17T10:32:36Z</time>
      </trkpt>
      <trkpt lat="42.84253" lon="0.11979">
        <ele>2682.1</ele>
        <time>2018-04-17T10:32:39Z</time>
      </trkpt>
      <trkpt lat="42.84258" lon="0.12005">
        <ele>2672.2</ele>
        <time>2018-04-17T10:32:43Z</time>
      </trkpt>
      <trkpt lat="42.84278" lon="0.12001">
        <ele>2670.6</ele>
        <time>2018-04-17T10:32:46Z</time>
      </trkpt>
      <trkpt lat="42.84298" lon="0.11997">
        <ele>2667.1</ele>
        <time>2018-04-17T10:32:50Z</time>
      </trkpt>
      <trkpt lat="42.84312" lon="0.12013">
        <ele>2657</ele>
        <time>2018-04-17T10:32:56Z</time>
      </trkpt>
      <trkpt lat="42.84329" lon="0.12022">
        <ele>2648.1</ele>
        <time>2018-04-17T10:33:03Z</time>
      </trkpt>
      <trkpt lat="42.84348" lon="0.1201">
        <ele>2647.3</ele>
        <time>2018-04-17T10:33:07Z</time>
      </trkpt>
      <trkpt lat="42.84366" lon="0.12012">
        <ele>2643.9</ele>
        <time>2018-04-17T10:33:12Z</time>
      </trkpt>
      <trkpt lat="42.84356" lon="0.12041">
        <ele>2638.9</ele>
        <time>2018-04-17T10:33:15Z</time>
      </trkpt>
      <trkpt lat="42.84375" lon="0.1205">
        <ele>2633.2</ele>
        <time>2018-04-17T10:33:29Z</time>
      </trkpt>
      <trkpt lat="42.84368" lon="0.12075">
        <ele>2629.7</ele>
        <time>2018-04-17T10:33:34Z</time>
      </trkpt>
      <trkpt lat="42.84387" lon="0.12077">
        <ele>2626.2</ele>
        <time>2018-04-17T10:33:52Z</time>
      </trkpt>
      <trkpt lat="42.84402" lon="0.12059">
        <ele>2623.6</ele>
        <time>2018-04-17T10:33:57Z</time>
      </trkpt>
      <trkpt lat="42.84425" lon="0.12048">
        <ele>2618.2</ele>
        <time>2018-04-17T10:34:01Z</time>
      </trkpt>
      <trkpt lat="42.84449" lon="0.12042">
        <ele>2613.1</ele>
        <time>2018-04-17T10:34:04Z</time>
      </trkpt>
      <trkpt lat="42.84467" lon="0.12036">
        <ele>2613</ele>
        <time>2018-04-17T10:34:07Z</time>
      </trkpt>
      <trkpt lat="42.84457" lon="0.12064">
        <ele>2602.4</ele>
        <time>2018-04-17T10:35:16Z</time>
      </trkpt>
      <trkpt lat="42.84438" lon="0.12091">
        <ele>2543</ele>
        <time>2018-04-17T10:35:19Z</time>
      </trkpt>
      <trkpt lat="42.84428" lon="0.12111">
        <ele>2543</ele>
        <time>2018-04-17T10:35:21Z</time>
      </trkpt>
      <trkpt lat="42.84418" lon="0.12137">
        <ele>2543</ele>
        <time>2018-04-17T10:35:24Z</time>
      </trkpt>
      <trkpt lat="42.84442" lon="0.12133">
        <ele>2543</ele>
        <time>2018-04-17T10:35:30Z</time>
      </trkpt>
      <trkpt lat="42.84465" lon="0.1212">
        <ele>2543</ele>
        <time>2018-04-17T10:35:33Z</time>
      </trkpt>
      <trkpt lat="42.84484" lon="0.12113">
        <ele>2543</ele>
        <time>2018-04-17T10:35:37Z</time>
      </trkpt>
      <trkpt lat="42.84504" lon="0.12111">
        <ele>2538</ele>
        <time>2018-04-17T10:35:42Z</time>
      </trkpt>
      <trkpt lat="42.84522" lon="0.12109">
        <ele>2538</ele>
        <time>2018-04-17T10:35:47Z</time>
      </trkpt>
      <trkpt lat="42.84537" lon="0.12094">
        <ele>2538</ele>
        <time>2018-04-17T10:35:55Z</time>
      </trkpt>
      <trkpt lat="42.84551" lon="0.12112">
        <ele>2537</ele>
        <time>2018-04-17T10:36:04Z</time>
      </trkpt>
      <trkpt lat="42.84571" lon="0.12116">
        <ele>2537</ele>
        <time>2018-04-17T10:36:10Z</time>
      </trkpt>
      <trkpt lat="42.84578" lon="0.12093">
        <ele>2540</ele>
        <time>2018-04-17T10:36:15Z</time>
      </trkpt>
      <trkpt lat="42.84595" lon="0.1207">
        <ele>2539</ele>
        <time>2018-04-17T10:36:19Z</time>
      </trkpt>
      <trkpt lat="42.84613" lon="0.1206">
        <ele>2537</ele>
        <time>2018-04-17T10:36:21Z</time>
      </trkpt>
      <trkpt lat="42.84636" lon="0.12057">
        <ele>2536</ele>
        <time>2018-04-17T10:36:23Z</time>
      </trkpt>
      <trkpt lat="42.84661" lon="0.12069">
        <ele>2532</ele>
        <time>2018-04-17T10:36:25Z</time>
      </trkpt>
      <trkpt lat="42.84679" lon="0.12091">
        <ele>2529</ele>
        <time>2018-04-17T10:36:27Z</time>
      </trkpt>
      <trkpt lat="42.84689" lon="0.12112">
        <ele>2528</ele>
        <time>2018-04-17T10:36:29Z</time>
      </trkpt>
      <trkpt lat="42.84704" lon="0.12139">
        <ele>2526</ele>
        <time>2018-04-17T10:36:32Z</time>
      </trkpt>
      <trkpt lat="42.84714" lon="0.1216">
        <ele>2525</ele>
        <time>2018-04-17T10:36:36Z</time>
      </trkpt>
      <trkpt lat="42.84715" lon="0.1219">
        <ele>2514</ele>
        <time>2018-04-17T10:36:49Z</time>
      </trkpt>
      <trkpt lat="42.84731" lon="0.12203">
        <ele>2512</ele>
        <time>2018-04-17T10:36:58Z</time>
      </trkpt>
      <trkpt lat="42.84751" lon="0.12197">
        <ele>2505</ele>
        <time>2018-04-17T10:37:48Z</time>
      </trkpt>
      <trkpt lat="42.84769" lon="0.12182">
        <ele>2506</ele>
        <time>2018-04-17T10:37:55Z</time>
      </trkpt>
      <trkpt lat="42.84783" lon="0.12168">
        <ele>2504</ele>
        <time>2018-04-17T10:38:01Z</time>
      </trkpt>
      <trkpt lat="42.84799" lon="0.12147">
        <ele>2519</ele>
        <time>2018-04-17T10:38:06Z</time>
      </trkpt>
      <trkpt lat="42.84815" lon="0.1213">
        <ele>2521</ele>
        <time>2018-04-17T10:38:11Z</time>
      </trkpt>
      <trkpt lat="42.84835" lon="0.12119">
        <ele>2523</ele>
        <time>2018-04-17T10:38:16Z</time>
      </trkpt>
      <trkpt lat="42.84854" lon="0.12119">
        <ele>2524</ele>
        <time>2018-04-17T10:38:20Z</time>
      </trkpt>
      <trkpt lat="42.84874" lon="0.12128">
        <ele>2523</ele>
        <time>2018-04-17T10:38:24Z</time>
      </trkpt>
      <trkpt lat="42.8489" lon="0.1214">
        <ele>2521</ele>
        <time>2018-04-17T10:38:28Z</time>
      </trkpt>
      <trkpt lat="42.84907" lon="0.12158">
        <ele>2515</ele>
        <time>2018-04-17T10:38:33Z</time>
      </trkpt>
      <trkpt lat="42.8492" lon="0.12178">
        <ele>2506</ele>
        <time>2018-04-17T10:38:37Z</time>
      </trkpt>
      <trkpt lat="42.8493" lon="0.12201">
        <ele>2503</ele>
        <time>2018-04-17T10:38:42Z</time>
      </trkpt>
      <trkpt lat="42.84944" lon="0.12221">
        <ele>2500</ele>
        <time>2018-04-17T10:38:50Z</time>
      </trkpt>
      <trkpt lat="42.84959" lon="0.12234">
        <ele>2501</ele>
        <time>2018-04-17T10:38:57Z</time>
      </trkpt>
      <trkpt lat="42.84976" lon="0.12244">
        <ele>2503</ele>
        <time>2018-04-17T10:39:03Z</time>
      </trkpt>
      <trkpt lat="42.84996" lon="0.1225">
        <ele>2501</ele>
        <time>2018-04-17T10:39:09Z</time>
      </trkpt>
      <trkpt lat="42.85011" lon="0.12269">
        <ele>2494</ele>
        <time>2018-04-17T10:39:14Z</time>
      </trkpt>
      <trkpt lat="42.85022" lon="0.12288">
        <ele>2487</ele>
        <time>2018-04-17T10:39:22Z</time>
      </trkpt>
      <trkpt lat="42.85037" lon="0.12306">
        <ele>2482</ele>
        <time>2018-04-17T10:39:37Z</time>
      </trkpt>
      <trkpt lat="42.85057" lon="0.12318">
        <ele>2481</ele>
        <time>2018-04-17T10:39:42Z</time>
      </trkpt>
      <trkpt lat="42.85073" lon="0.12332">
        <ele>2476</ele>
        <time>2018-04-17T10:39:46Z</time>
      </trkpt>
      <trkpt lat="42.85091" lon="0.12345">
        <ele>2469</ele>
        <time>2018-04-17T10:39:50Z</time>
      </trkpt>
      <trkpt lat="42.85108" lon="0.12359">
        <ele>2467</ele>
        <time>2018-04-17T10:39:55Z</time>
      </trkpt>
      <trkpt lat="42.85126" lon="0.12363">
        <ele>2468</ele>
        <time>2018-04-17T10:45:53Z</time>
      </trkpt>
      <trkpt lat="42.85143" lon="0.12354">
        <ele>2473</ele>
        <time>2018-04-17T10:47:07Z</time>
      </trkpt>
      <trkpt lat="42.85159" lon="0.12367">
        <ele>2472</ele>
        <time>2018-04-17T10:47:43Z</time>
      </trkpt>
      <trkpt lat="42.85175" lon="0.12351">
        <ele>2487</ele>
        <time>2018-04-17T10:48:44Z</time>
      </trkpt>
      <trkpt lat="42.85193" lon="0.12346">
        <ele>2488</ele>
        <time>2018-04-17T10:49:14Z</time>
      </trkpt>
      <trkpt lat="42.85206" lon="0.12329">
        <ele>2481</ele>
        <time>2018-04-17T10:49:54Z</time>
      </trkpt>
      <trkpt lat="42.85224" lon="0.12333">
        <ele>2482</ele>
        <time>2018-04-17T10:54:22Z</time>
      </trkpt>
      <trkpt lat="42.85241" lon="0.12343">
        <ele>2490</ele>
        <time>2018-04-17T10:54:43Z</time>
      </trkpt>
      <trkpt lat="42.85256" lon="0.12357">
        <ele>2498</ele>
        <time>2018-04-17T10:55:08Z</time>
      </trkpt>
      <trkpt lat="42.85276" lon="0.12358">
        <ele>2500</ele>
        <time>2018-04-17T11:02:05Z</time>
      </trkpt>
      <trkpt lat="42.85291" lon="0.12343">
        <ele>2499</ele>
        <time>2018-04-17T11:02:16Z</time>
      </trkpt>
      <trkpt lat="42.85303" lon="0.12323">
        <ele>2472</ele>
        <time>2018-04-17T11:02:28Z</time>
      </trkpt>
      <trkpt lat="42.85294" lon="0.12299">
        <ele>2465</ele>
        <time>2018-04-17T11:02:38Z</time>
      </trkpt>
      <trkpt lat="42.85301" lon="0.12274">
        <ele>2456</ele>
        <time>2018-04-17T11:02:50Z</time>
      </trkpt>
      <trkpt lat="42.85299" lon="0.1225">
        <ele>2423</ele>
        <time>2018-04-17T11:03:16Z</time>
      </trkpt>
      <trkpt lat="42.85297" lon="0.12225">
        <ele>2419</ele>
        <time>2018-04-17T11:03:23Z</time>
      </trkpt>
      <trkpt lat="42.85305" lon="0.12199">
        <ele>2413</ele>
        <time>2018-04-17T11:03:29Z</time>
      </trkpt>
      <trkpt lat="42.85292" lon="0.12181">
        <ele>2410</ele>
        <time>2018-04-17T11:03:32Z</time>
      </trkpt>
      <trkpt lat="42.85303" lon="0.1216">
        <ele>2388</ele>
        <time>2018-04-17T11:03:37Z</time>
      </trkpt>
      <trkpt lat="42.85295" lon="0.12138">
        <ele>2387</ele>
        <time>2018-04-17T11:03:40Z</time>
      </trkpt>
      <trkpt lat="42.85301" lon="0.1211">
        <ele>2382</ele>
        <time>2018-04-17T11:03:44Z</time>
      </trkpt>
      <trkpt lat="42.85298" lon="0.12081">
        <ele>2371</ele>
        <time>2018-04-17T11:03:46Z</time>
      </trkpt>
      <trkpt lat="42.85293" lon="0.12049">
        <ele>2370</ele>
        <time>2018-04-17T11:03:49Z</time>
      </trkpt>
      <trkpt lat="42.85304" lon="0.12029">
        <ele>2368</ele>
        <time>2018-04-17T11:03:52Z</time>
      </trkpt>
      <trkpt lat="42.8532" lon="0.12003">
        <ele>2364</ele>
        <time>2018-04-17T11:06:31Z</time>
      </trkpt>
      <trkpt lat="42.85318" lon="0.11972">
        <ele>2364</ele>
        <time>2018-04-17T11:06:34Z</time>
      </trkpt>
      <trkpt lat="42.85329" lon="0.1195">
        <ele>2363</ele>
        <time>2018-04-17T11:06:38Z</time>
      </trkpt>
      <trkpt lat="42.8535" lon="0.11949">
        <ele>2353</ele>
        <time>2018-04-17T11:06:42Z</time>
      </trkpt>
      <trkpt lat="42.85369" lon="0.11954">
        <ele>2351</ele>
        <time>2018-04-17T11:06:45Z</time>
      </trkpt>
      <trkpt lat="42.85391" lon="0.11953">
        <ele>2349</ele>
        <time>2018-04-17T11:06:48Z</time>
      </trkpt>
      <trkpt lat="42.85408" lon="0.1194">
        <ele>2346</ele>
        <time>2018-04-17T11:06:51Z</time>
      </trkpt>
      <trkpt lat="42.85417" lon="0.11916">
        <ele>2340</ele>
        <time>2018-04-17T11:06:54Z</time>
      </trkpt>
      <trkpt lat="42.8543" lon="0.11889">
        <ele>2336</ele>
        <time>2018-04-17T11:06:57Z</time>
      </trkpt>
      <trkpt lat="42.8544" lon="0.11864">
        <ele>2335</ele>
        <time>2018-04-17T11:07:01Z</time>
      </trkpt>
      <trkpt lat="42.85457" lon="0.11847">
        <ele>2334</ele>
        <time>2018-04-17T11:07:05Z</time>
      </trkpt>
      <trkpt lat="42.85479" lon="0.11835">
        <ele>2330</ele>
        <time>2018-04-17T11:07:08Z</time>
      </trkpt>
      <trkpt lat="42.85494" lon="0.11815">
        <ele>2330</ele>
        <time>2018-04-17T11:07:11Z</time>
      </trkpt>
      <trkpt lat="42.85513" lon="0.11795">
        <ele>2324</ele>
        <time>2018-04-17T11:07:14Z</time>
      </trkpt>
      <trkpt lat="42.85528" lon="0.11781">
        <ele>2324</ele>
        <time>2018-04-17T11:07:17Z</time>
      </trkpt>
      <trkpt lat="42.85547" lon="0.11766">
        <ele>2323</ele>
        <time>2018-04-17T11:07:21Z</time>
      </trkpt>
      <trkpt lat="42.85563" lon="0.11753">
        <ele>2322</ele>
        <time>2018-04-17T11:07:24Z</time>
      </trkpt>
      <trkpt lat="42.85581" lon="0.11741">
        <ele>2323</ele>
        <time>2018-04-17T11:07:27Z</time>
      </trkpt>
      <trkpt lat="42.85599" lon="0.11727">
        <ele>2320</ele>
        <time>2018-04-17T11:07:30Z</time>
      </trkpt>
      <trkpt lat="42.85615" lon="0.11713">
        <ele>2319</ele>
        <time>2018-04-17T11:07:33Z</time>
      </trkpt>
      <trkpt lat="42.85633" lon="0.11707">
        <ele>2318</ele>
        <time>2018-04-17T11:07:39Z</time>
      </trkpt>
      <trkpt lat="42.85651" lon="0.11699">
        <ele>2317</ele>
        <time>2018-04-17T11:08:01Z</time>
      </trkpt>
      <trkpt lat="42.85667" lon="0.11721">
        <ele>2306</ele>
        <time>2018-04-17T11:08:05Z</time>
      </trkpt>
      <trkpt lat="42.85687" lon="0.11744">
        <ele>2306</ele>
        <time>2018-04-17T11:08:08Z</time>
      </trkpt>
      <trkpt lat="42.85706" lon="0.11759">
        <ele>2305</ele>
        <time>2018-04-17T11:08:11Z</time>
      </trkpt>
      <trkpt lat="42.85724" lon="0.11773">
        <ele>2303</ele>
        <time>2018-04-17T11:08:15Z</time>
      </trkpt>
      <trkpt lat="42.8574" lon="0.11789">
        <ele>2303</ele>
        <time>2018-04-17T11:08:20Z</time>
      </trkpt>
      <trkpt lat="42.85757" lon="0.11805">
        <ele>2292</ele>
        <time>2018-04-17T11:08:28Z</time>
      </trkpt>
      <trkpt lat="42.85766" lon="0.11826">
        <ele>2294</ele>
        <time>2018-04-17T11:08:36Z</time>
      </trkpt>
      <trkpt lat="42.85771" lon="0.11853">
        <ele>2297</ele>
        <time>2018-04-17T11:08:43Z</time>
      </trkpt>
      <trkpt lat="42.85772" lon="0.11881">
        <ele>2297</ele>
        <time>2018-04-17T11:08:48Z</time>
      </trkpt>
      <trkpt lat="42.85779" lon="0.11909">
        <ele>2298</ele>
        <time>2018-04-17T11:08:53Z</time>
      </trkpt>
      <trkpt lat="42.85794" lon="0.11923">
        <ele>2303</ele>
        <time>2018-04-17T11:08:56Z</time>
      </trkpt>
      <trkpt lat="42.85814" lon="0.11927">
        <ele>2300</ele>
        <time>2018-04-17T11:09:00Z</time>
      </trkpt>
      <trkpt lat="42.85836" lon="0.11929">
        <ele>2293</ele>
        <time>2018-04-17T11:09:05Z</time>
      </trkpt>
      <trkpt lat="42.85854" lon="0.11926">
        <ele>2292</ele>
        <time>2018-04-17T11:09:09Z</time>
      </trkpt>
      <trkpt lat="42.85874" lon="0.11926">
        <ele>2292</ele>
        <time>2018-04-17T11:09:14Z</time>
      </trkpt>
      <trkpt lat="42.85895" lon="0.11926">
        <ele>2290</ele>
        <time>2018-04-17T11:09:20Z</time>
      </trkpt>
      <trkpt lat="42.85915" lon="0.11925">
        <ele>2287</ele>
        <time>2018-04-17T11:09:37Z</time>
      </trkpt>
      <trkpt lat="42.85933" lon="0.11927">
        <ele>2282</ele>
        <time>2018-04-17T11:40:12Z</time>
      </trkpt>
      <trkpt lat="42.8595" lon="0.11941">
        <ele>2280</ele>
        <time>2018-04-17T11:40:16Z</time>
      </trkpt>
      <trkpt lat="42.85967" lon="0.11967">
        <ele>2279</ele>
        <time>2018-04-17T11:40:19Z</time>
      </trkpt>
      <trkpt lat="42.85974" lon="0.11999">
        <ele>2278</ele>
        <time>2018-04-17T11:40:22Z</time>
      </trkpt>
      <trkpt lat="42.8599" lon="0.12016">
        <ele>2278</ele>
        <time>2018-04-17T11:40:26Z</time>
      </trkpt>
      <trkpt lat="42.86008" lon="0.12006">
        <ele>2271</ele>
        <time>2018-04-17T11:40:29Z</time>
      </trkpt>
      <trkpt lat="42.86026" lon="0.1199">
        <ele>2267</ele>
        <time>2018-04-17T11:40:32Z</time>
      </trkpt>
      <trkpt lat="42.86037" lon="0.11967">
        <ele>2265</ele>
        <time>2018-04-17T11:40:35Z</time>
      </trkpt>
      <trkpt lat="42.86039" lon="0.11935">
        <ele>2264</ele>
        <time>2018-04-17T11:40:38Z</time>
      </trkpt>
      <trkpt lat="42.86055" lon="0.11913">
        <ele>2261</ele>
        <time>2018-04-17T11:40:42Z</time>
      </trkpt>
      <trkpt lat="42.86078" lon="0.11908">
        <ele>2258</ele>
        <time>2018-04-17T11:40:45Z</time>
      </trkpt>
      <trkpt lat="42.86104" lon="0.11908">
        <ele>2254</ele>
        <time>2018-04-17T11:40:48Z</time>
      </trkpt>
      <trkpt lat="42.86127" lon="0.11904">
        <ele>2253</ele>
        <time>2018-04-17T11:40:51Z</time>
      </trkpt>
      <trkpt lat="42.86146" lon="0.1189">
        <ele>2253</ele>
        <time>2018-04-17T11:40:54Z</time>
      </trkpt>
      <trkpt lat="42.86161" lon="0.11875">
        <ele>2253</ele>
        <time>2018-04-17T11:40:59Z</time>
      </trkpt>
      <trkpt lat="42.86176" lon="0.1186">
        <ele>2249</ele>
        <time>2018-04-17T11:41:04Z</time>
      </trkpt>
      <trkpt lat="42.8619" lon="0.11839">
        <ele>2249</ele>
        <time>2018-04-17T11:41:11Z</time>
      </trkpt>
      <trkpt lat="42.86201" lon="0.11819">
        <ele>2249</ele>
        <time>2018-04-17T11:41:16Z</time>
      </trkpt>
      <trkpt lat="42.86217" lon="0.11799">
        <ele>2248</ele>
        <time>2018-04-17T11:41:22Z</time>
      </trkpt>
      <trkpt lat="42.86233" lon="0.1178">
        <ele>2247</ele>
        <time>2018-04-17T11:41:26Z</time>
      </trkpt>
      <trkpt lat="42.8625" lon="0.11771">
        <ele>2239</ele>
        <time>2018-04-17T11:41:34Z</time>
      </trkpt>
      <trkpt lat="42.86274" lon="0.11776">
        <ele>2237</ele>
        <time>2018-04-17T11:42:16Z</time>
      </trkpt>
      <trkpt lat="42.86292" lon="0.11783">
        <ele>2236</ele>
        <time>2018-04-17T11:42:19Z</time>
      </trkpt>
      <trkpt lat="42.86312" lon="0.11771">
        <ele>2234</ele>
        <time>2018-04-17T11:42:23Z</time>
      </trkpt>
      <trkpt lat="42.8633" lon="0.11766">
        <ele>2232</ele>
        <time>2018-04-17T11:42:25Z</time>
      </trkpt>
      <trkpt lat="42.86351" lon="0.11763">
        <ele>2228</ele>
        <time>2018-04-17T11:42:27Z</time>
      </trkpt>
      <trkpt lat="42.86369" lon="0.11761">
        <ele>2227</ele>
        <time>2018-04-17T11:42:29Z</time>
      </trkpt>
      <trkpt lat="42.86388" lon="0.11759">
        <ele>2225</ele>
        <time>2018-04-17T11:42:32Z</time>
      </trkpt>
      <trkpt lat="42.86408" lon="0.11756">
        <ele>2223</ele>
        <time>2018-04-17T11:42:36Z</time>
      </trkpt>
      <trkpt lat="42.86427" lon="0.11752">
        <ele>2222</ele>
        <time>2018-04-17T11:42:40Z</time>
      </trkpt>
      <trkpt lat="42.86451" lon="0.11758">
        <ele>2223</ele>
        <time>2018-04-17T11:42:45Z</time>
      </trkpt>
      <trkpt lat="42.86469" lon="0.11743">
        <ele>2219</ele>
        <time>2018-04-17T11:42:48Z</time>
      </trkpt>
      <trkpt lat="42.86486" lon="0.11722">
        <ele>2218</ele>
        <time>2018-04-17T11:42:52Z</time>
      </trkpt>
      <trkpt lat="42.86496" lon="0.117">
        <ele>2217</ele>
        <time>2018-04-17T11:42:57Z</time>
      </trkpt>
      <trkpt lat="42.86507" lon="0.11678">
        <ele>2215</ele>
        <time>2018-04-17T11:43:06Z</time>
      </trkpt>
      <trkpt lat="42.86523" lon="0.1166">
        <ele>2213</ele>
        <time>2018-04-17T11:43:15Z</time>
      </trkpt>
      <trkpt lat="42.8654" lon="0.11649">
        <ele>2213</ele>
        <time>2018-04-17T11:43:21Z</time>
      </trkpt>
      <trkpt lat="42.86557" lon="0.11635">
        <ele>2212</ele>
        <time>2018-04-17T11:43:27Z</time>
      </trkpt>
      <trkpt lat="42.86571" lon="0.11619">
        <ele>2212</ele>
        <time>2018-04-17T11:43:33Z</time>
      </trkpt>
      <trkpt lat="42.86589" lon="0.11603">
        <ele>2207</ele>
        <time>2018-04-17T11:43:39Z</time>
      </trkpt>
      <trkpt lat="42.86604" lon="0.1159">
        <ele>2206</ele>
        <time>2018-04-17T11:43:45Z</time>
      </trkpt>
      <trkpt lat="42.86617" lon="0.11572">
        <ele>2203</ele>
        <time>2018-04-17T11:44:42Z</time>
      </trkpt>
      <trkpt lat="42.86623" lon="0.11544">
        <ele>2203</ele>
        <time>2018-04-17T11:44:47Z</time>
      </trkpt>
      <trkpt lat="42.8663" lon="0.1152">
        <ele>2202</ele>
        <time>2018-04-17T11:44:55Z</time>
      </trkpt>
      <trkpt lat="42.8663" lon="0.11494">
        <ele>2201</ele>
        <time>2018-04-17T11:45:01Z</time>
      </trkpt>
      <trkpt lat="42.8664" lon="0.11466">
        <ele>2200</ele>
        <time>2018-04-17T11:45:05Z</time>
      </trkpt>
      <trkpt lat="42.86653" lon="0.11449">
        <ele>2198</ele>
        <time>2018-04-17T11:45:11Z</time>
      </trkpt>
      <trkpt lat="42.86667" lon="0.1143">
        <ele>2190</ele>
        <time>2018-04-17T11:45:23Z</time>
      </trkpt>
      <trkpt lat="42.86664" lon="0.11399">
        <ele>2197</ele>
        <time>2018-04-17T11:45:31Z</time>
      </trkpt>
      <trkpt lat="42.86667" lon="0.11372">
        <ele>2190</ele>
        <time>2018-04-17T11:45:37Z</time>
      </trkpt>
      <trkpt lat="42.86679" lon="0.1135">
        <ele>2192</ele>
        <time>2018-04-17T11:45:43Z</time>
      </trkpt>
      <trkpt lat="42.86697" lon="0.11336">
        <ele>2190</ele>
        <time>2018-04-17T11:45:49Z</time>
      </trkpt>
      <trkpt lat="42.86717" lon="0.11327">
        <ele>2192</ele>
        <time>2018-04-17T11:45:54Z</time>
      </trkpt>
      <trkpt lat="42.86738" lon="0.1132">
        <ele>2189</ele>
        <time>2018-04-17T11:46:00Z</time>
      </trkpt>
      <trkpt lat="42.86759" lon="0.1131">
        <ele>2185</ele>
        <time>2018-04-17T11:46:05Z</time>
      </trkpt>
      <trkpt lat="42.86778" lon="0.11306">
        <ele>2185</ele>
        <time>2018-04-17T11:46:08Z</time>
      </trkpt>
      <trkpt lat="42.86799" lon="0.11306">
        <ele>2183</ele>
        <time>2018-04-17T11:46:11Z</time>
      </trkpt>
      <trkpt lat="42.8682" lon="0.1131">
        <ele>2180</ele>
        <time>2018-04-17T11:46:14Z</time>
      </trkpt>
      <trkpt lat="42.8684" lon="0.11314">
        <ele>2174</ele>
        <time>2018-04-17T11:46:17Z</time>
      </trkpt>
      <trkpt lat="42.86858" lon="0.11322">
        <ele>2174</ele>
        <time>2018-04-17T11:46:20Z</time>
      </trkpt>
      <trkpt lat="42.86877" lon="0.11331">
        <ele>2174</ele>
        <time>2018-04-17T11:46:24Z</time>
      </trkpt>
      <trkpt lat="42.86894" lon="0.1134">
        <ele>2165</ele>
        <time>2018-04-17T11:46:30Z</time>
      </trkpt>
      <trkpt lat="42.86911" lon="0.1135">
        <ele>2165</ele>
        <time>2018-04-17T11:46:49Z</time>
      </trkpt>
      <trkpt lat="42.86929" lon="0.11351">
        <ele>2160</ele>
        <time>2018-04-17T11:46:56Z</time>
      </trkpt>
      <trkpt lat="42.86949" lon="0.11349">
        <ele>2158</ele>
        <time>2018-04-17T11:47:08Z</time>
      </trkpt>
      <trkpt lat="42.86967" lon="0.11351">
        <ele>2156</ele>
        <time>2018-04-17T11:47:19Z</time>
      </trkpt>
      <trkpt lat="42.86986" lon="0.11353">
        <ele>2156</ele>
        <time>2018-04-17T11:47:47Z</time>
      </trkpt>
      <trkpt lat="42.87005" lon="0.11357">
        <ele>2147</ele>
        <time>2018-04-17T11:47:57Z</time>
      </trkpt>
      <trkpt lat="42.87023" lon="0.11359">
        <ele>2144</ele>
        <time>2018-04-17T11:48:11Z</time>
      </trkpt>
      <trkpt lat="42.87043" lon="0.11357">
        <ele>2141</ele>
        <time>2018-04-17T11:48:43Z</time>
      </trkpt>
      <trkpt lat="42.8706" lon="0.11344">
        <ele>2139</ele>
        <time>2018-04-17T11:48:51Z</time>
      </trkpt>
      <trkpt lat="42.87077" lon="0.11327">
        <ele>2143</ele>
        <time>2018-04-17T11:48:56Z</time>
      </trkpt>
      <trkpt lat="42.87093" lon="0.11314">
        <ele>2138</ele>
        <time>2018-04-17T11:49:00Z</time>
      </trkpt>
      <trkpt lat="42.87113" lon="0.11297">
        <ele>2139</ele>
        <time>2018-04-17T11:49:04Z</time>
      </trkpt>
      <trkpt lat="42.87131" lon="0.11284">
        <ele>2138</ele>
        <time>2018-04-17T11:49:08Z</time>
      </trkpt>
      <trkpt lat="42.87149" lon="0.11272">
        <ele>2137</ele>
        <time>2018-04-17T11:49:13Z</time>
      </trkpt>
      <trkpt lat="42.87171" lon="0.11264">
        <ele>2132</ele>
        <time>2018-04-17T11:49:17Z</time>
      </trkpt>
      <trkpt lat="42.87193" lon="0.11266">
        <ele>2130</ele>
        <time>2018-04-17T11:49:20Z</time>
      </trkpt>
      <trkpt lat="42.87211" lon="0.11271">
        <ele>2128</ele>
        <time>2018-04-17T11:49:34Z</time>
      </trkpt>
      <trkpt lat="42.8723" lon="0.11265">
        <ele>2129</ele>
        <time>2018-04-17T11:49:54Z</time>
      </trkpt>
      <trkpt lat="42.87249" lon="0.11267">
        <ele>2129</ele>
        <time>2018-04-17T11:50:33Z</time>
      </trkpt>
      <trkpt lat="42.87264" lon="0.11281">
        <ele>2124</ele>
        <time>2018-04-17T11:50:39Z</time>
      </trkpt>
      <trkpt lat="42.87279" lon="0.11301">
        <ele>2121</ele>
        <time>2018-04-17T11:50:44Z</time>
      </trkpt>
      <trkpt lat="42.87295" lon="0.11318">
        <ele>2119</ele>
        <time>2018-04-17T11:50:49Z</time>
      </trkpt>
      <trkpt lat="42.87312" lon="0.11334">
        <ele>2110</ele>
        <time>2018-04-17T11:50:57Z</time>
      </trkpt>
      <trkpt lat="42.87333" lon="0.1134">
        <ele>2110</ele>
        <time>2018-04-17T11:51:01Z</time>
      </trkpt>
      <trkpt lat="42.87346" lon="0.11321">
        <ele>2111</ele>
        <time>2018-04-17T11:52:00Z</time>
      </trkpt>
      <trkpt lat="42.8736" lon="0.11306">
        <ele>2112</ele>
        <time>2018-04-17T11:52:06Z</time>
      </trkpt>
      <trkpt lat="42.87376" lon="0.11288">
        <ele>2113</ele>
        <time>2018-04-17T11:52:10Z</time>
      </trkpt>
      <trkpt lat="42.87395" lon="0.11291">
        <ele>2111</ele>
        <time>2018-04-17T11:52:13Z</time>
      </trkpt>
      <trkpt lat="42.87414" lon="0.11296">
        <ele>2110</ele>
        <time>2018-04-17T11:52:16Z</time>
      </trkpt>
      <trkpt lat="42.87436" lon="0.11299">
        <ele>2099</ele>
        <time>2018-04-17T11:52:19Z</time>
      </trkpt>
      <trkpt lat="42.87456" lon="0.11296">
        <ele>2097</ele>
        <time>2018-04-17T11:52:22Z</time>
      </trkpt>
      <trkpt lat="42.87475" lon="0.11293">
        <ele>2096</ele>
        <time>2018-04-17T11:52:25Z</time>
      </trkpt>
      <trkpt lat="42.87494" lon="0.11295">
        <ele>2094</ele>
        <time>2018-04-17T11:52:28Z</time>
      </trkpt>
      <trkpt lat="42.87515" lon="0.11294">
        <ele>2074</ele>
        <time>2018-04-17T11:52:32Z</time>
      </trkpt>
      <trkpt lat="42.87535" lon="0.11292">
        <ele>2070</ele>
        <time>2018-04-17T11:52:36Z</time>
      </trkpt>
      <trkpt lat="42.87551" lon="0.11279">
        <ele>2068</ele>
        <time>2018-04-17T11:53:25Z</time>
      </trkpt>
      <trkpt lat="42.87566" lon="0.11265">
        <ele>2066</ele>
        <time>2018-04-17T11:53:34Z</time>
      </trkpt>
      <trkpt lat="42.87582" lon="0.1125">
        <ele>2061</ele>
        <time>2018-04-17T11:53:42Z</time>
      </trkpt>
      <trkpt lat="42.87598" lon="0.11236">
        <ele>2060</ele>
        <time>2018-04-17T11:53:48Z</time>
      </trkpt>
      <trkpt lat="42.87615" lon="0.11222">
        <ele>2059</ele>
        <time>2018-04-17T11:53:55Z</time>
      </trkpt>
      <trkpt lat="42.8763" lon="0.11208">
        <ele>2058</ele>
        <time>2018-04-17T11:54:04Z</time>
      </trkpt>
      <trkpt lat="42.87648" lon="0.11197">
        <ele>2057</ele>
        <time>2018-04-17T11:54:09Z</time>
      </trkpt>
      <trkpt lat="42.87665" lon="0.11211">
        <ele>2055</ele>
        <time>2018-04-17T11:54:15Z</time>
      </trkpt>
      <trkpt lat="42.87685" lon="0.11224">
        <ele>2041</ele>
        <time>2018-04-17T11:54:21Z</time>
      </trkpt>
      <trkpt lat="42.87705" lon="0.11235">
        <ele>2040</ele>
        <time>2018-04-17T11:54:25Z</time>
      </trkpt>
      <trkpt lat="42.87724" lon="0.11233">
        <ele>2039</ele>
        <time>2018-04-17T11:58:29Z</time>
      </trkpt>
      <trkpt lat="42.87732" lon="0.1121">
        <ele>2037</ele>
        <time>2018-04-17T11:58:41Z</time>
      </trkpt>
      <trkpt lat="42.87742" lon="0.11186">
        <ele>2032</ele>
        <time>2018-04-17T11:58:45Z</time>
      </trkpt>
      <trkpt lat="42.87755" lon="0.11167">
        <ele>2019</ele>
        <time>2018-04-17T11:58:54Z</time>
      </trkpt>
      <trkpt lat="42.87758" lon="0.11141">
        <ele>2009</ele>
        <time>2018-04-17T11:58:59Z</time>
      </trkpt>
      <trkpt lat="42.8777" lon="0.11122">
        <ele>2006</ele>
        <time>2018-04-17T11:59:07Z</time>
      </trkpt>
      <trkpt lat="42.87783" lon="0.111">
        <ele>2004</ele>
        <time>2018-04-17T11:59:15Z</time>
      </trkpt>
      <trkpt lat="42.87796" lon="0.11083">
        <ele>2005</ele>
        <time>2018-04-17T11:59:20Z</time>
      </trkpt>
      <trkpt lat="42.87811" lon="0.11068">
        <ele>2000</ele>
        <time>2018-04-17T11:59:43Z</time>
      </trkpt>
      <trkpt lat="42.87828" lon="0.11056">
        <ele>1998</ele>
        <time>2018-04-17T11:59:46Z</time>
      </trkpt>
      <trkpt lat="42.87845" lon="0.11038">
        <ele>1970</ele>
        <time>2018-04-17T11:59:51Z</time>
      </trkpt>
      <trkpt lat="42.87862" lon="0.11032">
        <ele>1967</ele>
        <time>2018-04-17T11:59:58Z</time>
      </trkpt>
      <trkpt lat="42.87861" lon="0.11056">
        <ele>1964</ele>
        <time>2018-04-17T12:00:03Z</time>
      </trkpt>
      <trkpt lat="42.87878" lon="0.11045">
        <ele>1960</ele>
        <time>2018-04-17T12:00:10Z</time>
      </trkpt>
      <trkpt lat="42.879" lon="0.11055">
        <ele>1952</ele>
        <time>2018-04-17T12:00:19Z</time>
      </trkpt>
      <trkpt lat="42.87918" lon="0.11074">
        <ele>1926</ele>
        <time>2018-04-17T12:00:26Z</time>
      </trkpt>
      <trkpt lat="42.8792" lon="0.11104">
        <ele>1916</ele>
        <time>2018-04-17T12:00:30Z</time>
      </trkpt>
      <trkpt lat="42.87939" lon="0.11104">
        <ele>1912</ele>
        <time>2018-04-17T12:00:38Z</time>
      </trkpt>
      <trkpt lat="42.87952" lon="0.11083">
        <ele>1917</ele>
        <time>2018-04-17T12:02:16Z</time>
      </trkpt>
      <trkpt lat="42.8797" lon="0.111">
        <ele>1902</ele>
        <time>2018-04-17T12:02:21Z</time>
      </trkpt>
      <trkpt lat="42.87977" lon="0.11072">
        <ele>1909</ele>
        <time>2018-04-17T12:02:25Z</time>
      </trkpt>
      <trkpt lat="42.87994" lon="0.11092">
        <ele>1894</ele>
        <time>2018-04-17T12:02:30Z</time>
      </trkpt>
      <trkpt lat="42.88011" lon="0.11084">
        <ele>1880</ele>
        <time>2018-04-17T12:02:33Z</time>
      </trkpt>
      <trkpt lat="42.88031" lon="0.11083">
        <ele>1882</ele>
        <time>2018-04-17T12:02:37Z</time>
      </trkpt>
      <trkpt lat="42.88036" lon="0.1111">
        <ele>1866</ele>
        <time>2018-04-17T12:02:41Z</time>
      </trkpt>
      <trkpt lat="42.88032" lon="0.11134">
        <ele>1865</ele>
        <time>2018-04-17T12:03:05Z</time>
      </trkpt>
      <trkpt lat="42.88035" lon="0.11159">
        <ele>1864</ele>
        <time>2018-04-17T12:03:13Z</time>
      </trkpt>
      <trkpt lat="42.88055" lon="0.11164">
        <ele>1856</ele>
        <time>2018-04-17T12:03:23Z</time>
      </trkpt>
      <trkpt lat="42.88077" lon="0.11144">
        <ele>1853</ele>
        <time>2018-04-17T12:03:26Z</time>
      </trkpt>
      <trkpt lat="42.88097" lon="0.1114">
        <ele>1829</ele>
        <time>2018-04-17T12:03:29Z</time>
      </trkpt>
      <trkpt lat="42.88115" lon="0.11141">
        <ele>1824</ele>
        <time>2018-04-17T12:03:32Z</time>
      </trkpt>
      <trkpt lat="42.88134" lon="0.1114">
        <ele>1819</ele>
        <time>2018-04-17T12:04:00Z</time>
      </trkpt>
      <trkpt lat="42.88148" lon="0.11125">
        <ele>1818</ele>
        <time>2018-04-17T12:04:23Z</time>
      </trkpt>
      <trkpt lat="42.88165" lon="0.11112">
        <ele>1816</ele>
        <time>2018-04-17T12:05:08Z</time>
      </trkpt>
      <trkpt lat="42.88161" lon="0.11138">
        <ele>1813</ele>
        <time>2018-04-17T12:06:22Z</time>
      </trkpt>
      <trkpt lat="42.88154" lon="0.11162">
        <ele>1806</ele>
        <time>2018-04-17T12:06:29Z</time>
      </trkpt>
      <trkpt lat="42.88172" lon="0.11173">
        <ele>1790</ele>
        <time>2018-04-17T12:06:37Z</time>
      </trkpt>
      <trkpt lat="42.88193" lon="0.11176">
        <ele>1784</ele>
        <time>2018-04-17T12:06:42Z</time>
      </trkpt>
      <trkpt lat="42.88215" lon="0.11168">
        <ele>1777</ele>
        <time>2018-04-17T12:06:46Z</time>
      </trkpt>
      <trkpt lat="42.88231" lon="0.1115">
        <ele>1777</ele>
        <time>2018-04-17T12:06:51Z</time>
      </trkpt>
      <trkpt lat="42.88247" lon="0.11163">
        <ele>1766</ele>
        <time>2018-04-17T12:07:32Z</time>
      </trkpt>
      <trkpt lat="42.88269" lon="0.11168">
        <ele>1761</ele>
        <time>2018-04-17T12:07:35Z</time>
      </trkpt>
      <trkpt lat="42.88289" lon="0.11166">
        <ele>1759</ele>
        <time>2018-04-17T12:07:39Z</time>
      </trkpt>
      <trkpt lat="42.88309" lon="0.11158">
        <ele>1758</ele>
        <time>2018-04-17T12:07:44Z</time>
      </trkpt>
      <trkpt lat="42.88327" lon="0.11158">
        <ele>1757</ele>
        <time>2018-04-17T12:07:50Z</time>
      </trkpt>
      <trkpt lat="42.88345" lon="0.11158">
        <ele>1753</ele>
        <time>2018-04-17T12:08:00Z</time>
      </trkpt>
      <trkpt lat="42.88364" lon="0.11155">
        <ele>1752</ele>
        <time>2018-04-17T12:08:07Z</time>
      </trkpt>
      <trkpt lat="42.88383" lon="0.11148">
        <ele>1751</ele>
        <time>2018-04-17T12:09:36Z</time>
      </trkpt>
      <trkpt lat="42.88394" lon="0.11128">
        <ele>1749</ele>
        <time>2018-04-17T12:11:20Z</time>
      </trkpt>
      <trkpt lat="42.88408" lon="0.11109">
        <ele>1746</ele>
        <time>2018-04-17T12:11:33Z</time>
      </trkpt>
      <trkpt lat="42.88422" lon="0.11094">
        <ele>1744</ele>
        <time>2018-04-17T12:11:41Z</time>
      </trkpt>
      <trkpt lat="42.88434" lon="0.11073">
        <ele>1738</ele>
        <time>2018-04-17T12:11:48Z</time>
      </trkpt>
      <trkpt lat="42.8844" lon="0.11049">
        <ele>1737</ele>
        <time>2018-04-17T12:11:56Z</time>
      </trkpt>
      <trkpt lat="42.88445" lon="0.11025">
        <ele>1736</ele>
        <time>2018-04-17T12:12:07Z</time>
      </trkpt>
      <trkpt lat="42.88459" lon="0.1101">
        <ele>1736</ele>
        <time>2018-04-17T12:12:24Z</time>
      </trkpt>
      <trkpt lat="42.88475" lon="0.10998">
        <ele>1732</ele>
        <time>2018-04-17T12:12:36Z</time>
      </trkpt>
      <trkpt lat="42.88492" lon="0.10982">
        <ele>1732</ele>
        <time>2018-04-17T12:12:53Z</time>
      </trkpt>
      <trkpt lat="42.88509" lon="0.10973">
        <ele>1730</ele>
        <time>2018-04-17T12:12:59Z</time>
      </trkpt>
      <trkpt lat="42.88524" lon="0.10959">
        <ele>1728</ele>
        <time>2018-04-17T12:13:06Z</time>
      </trkpt>
      <trkpt lat="42.88539" lon="0.10945">
        <ele>1726</ele>
        <time>2018-04-17T12:13:15Z</time>
      </trkpt>
      <trkpt lat="42.88557" lon="0.10933">
        <ele>1724</ele>
        <time>2018-04-17T12:13:21Z</time>
      </trkpt>
      <trkpt lat="42.88573" lon="0.10922">
        <ele>1719</ele>
        <time>2018-04-17T12:13:29Z</time>
      </trkpt>
      <trkpt lat="42.88591" lon="0.10918">
        <ele>1717</ele>
        <time>2018-04-17T12:14:04Z</time>
      </trkpt>
      <trkpt lat="42.88609" lon="0.10912">
        <ele>1710</ele>
        <time>2018-04-17T12:14:28Z</time>
      </trkpt>
      <trkpt lat="42.88625" lon="0.109">
        <ele>1709</ele>
        <time>2018-04-17T12:14:48Z</time>
      </trkpt>
      <trkpt lat="42.88637" lon="0.10882">
        <ele>1708</ele>
        <time>2018-04-17T12:15:20Z</time>
      </trkpt>
      <trkpt lat="42.8863" lon="0.10856">
        <ele>1705</ele>
        <time>2018-04-17T12:15:39Z</time>
      </trkpt>
      <trkpt lat="42.88623" lon="0.10833">
        <ele>1699</ele>
        <time>2018-04-17T12:15:59Z</time>
      </trkpt>
      <trkpt lat="42.88641" lon="0.10829">
        <ele>1698</ele>
        <time>2018-04-17T12:16:31Z</time>
      </trkpt>
      <trkpt lat="42.88657" lon="0.10838">
        <ele>1699</ele>
        <time>2018-04-17T12:16:57Z</time>
      </trkpt>
      <trkpt lat="42.88675" lon="0.10846">
        <ele>1701</ele>
        <time>2018-04-17T12:17:23Z</time>
      </trkpt>
      <trkpt lat="42.88694" lon="0.10843">
        <ele>1703</ele>
        <time>2018-04-17T12:17:38Z</time>
      </trkpt>
      <trkpt lat="42.88712" lon="0.10841">
        <ele>1704</ele>
        <time>2018-04-17T12:17:58Z</time>
      </trkpt>
      <trkpt lat="42.8873" lon="0.10836">
        <ele>1702</ele>
        <time>2018-04-17T12:18:19Z</time>
      </trkpt>
      <trkpt lat="42.88748" lon="0.10836">
        <ele>1697</ele>
        <time>2018-04-17T12:18:39Z</time>
      </trkpt>
      <trkpt lat="42.88766" lon="0.10835">
        <ele>1702</ele>
        <time>2018-04-17T12:19:01Z</time>
      </trkpt>
      <trkpt lat="42.88785" lon="0.10831">
        <ele>1685</ele>
        <time>2018-04-17T12:19:19Z</time>
      </trkpt>
      <trkpt lat="42.88803" lon="0.10825">
        <ele>1683</ele>
        <time>2018-04-17T12:19:37Z</time>
      </trkpt>
      <trkpt lat="42.88821" lon="0.10818">
        <ele>1684</ele>
        <time>2018-04-17T12:19:54Z</time>
      </trkpt>
      <trkpt lat="42.88839" lon="0.1081">
        <ele>1681</ele>
        <time>2018-04-17T12:20:12Z</time>
      </trkpt>
      <trkpt lat="42.88855" lon="0.10799">
        <ele>1678</ele>
        <time>2018-04-17T12:20:29Z</time>
      </trkpt>
      <trkpt lat="42.88874" lon="0.10796">
        <ele>1677</ele>
        <time>2018-04-17T12:21:16Z</time>
      </trkpt>
      <trkpt lat="42.88891" lon="0.10787">
        <ele>1676</ele>
        <time>2018-04-17T12:21:32Z</time>
      </trkpt>
      <trkpt lat="42.8891" lon="0.10784">
        <ele>1675</ele>
        <time>2018-04-17T12:21:45Z</time>
      </trkpt>
      <trkpt lat="42.88927" lon="0.10777">
        <ele>1676</ele>
        <time>2018-04-17T12:22:56Z</time>
      </trkpt>
      <trkpt lat="42.88943" lon="0.1076">
        <ele>1674</ele>
        <time>2018-04-17T12:23:09Z</time>
      </trkpt>
      <trkpt lat="42.88964" lon="0.10752">
        <ele>1674</ele>
        <time>2018-04-17T12:23:15Z</time>
      </trkpt>
      <trkpt lat="42.88983" lon="0.10746">
        <ele>1660</ele>
        <time>2018-04-17T12:23:20Z</time>
      </trkpt>
      <trkpt lat="42.89004" lon="0.10748">
        <ele>1662</ele>
        <time>2018-04-17T12:23:27Z</time>
      </trkpt>
      <trkpt lat="42.89023" lon="0.10754">
        <ele>1672</ele>
        <time>2018-04-17T12:23:33Z</time>
      </trkpt>
      <trkpt lat="42.89042" lon="0.10752">
        <ele>1672</ele>
        <time>2018-04-17T12:23:38Z</time>
      </trkpt>
      <trkpt lat="42.89062" lon="0.10747">
        <ele>1653</ele>
        <time>2018-04-17T12:23:44Z</time>
      </trkpt>
      <trkpt lat="42.8908" lon="0.10736">
        <ele>1653</ele>
        <time>2018-04-17T12:23:49Z</time>
      </trkpt>
      <trkpt lat="42.89097" lon="0.10725">
        <ele>1644</ele>
        <time>2018-04-17T12:23:53Z</time>
      </trkpt>
      <trkpt lat="42.89116" lon="0.10721">
        <ele>1641</ele>
        <time>2018-04-17T12:23:59Z</time>
      </trkpt>
      <trkpt lat="42.89134" lon="0.10722">
        <ele>1640</ele>
        <time>2018-04-17T12:24:03Z</time>
      </trkpt>
      <trkpt lat="42.89151" lon="0.10714">
        <ele>1638</ele>
        <time>2018-04-17T12:24:08Z</time>
      </trkpt>
      <trkpt lat="42.89171" lon="0.1071">
        <ele>1629</ele>
        <time>2018-04-17T12:24:12Z</time>
      </trkpt>
      <trkpt lat="42.89191" lon="0.1071">
        <ele>1628</ele>
        <time>2018-04-17T12:24:16Z</time>
      </trkpt>
      <trkpt lat="42.89211" lon="0.10712">
        <ele>1627</ele>
        <time>2018-04-17T12:24:23Z</time>
      </trkpt>
      <trkpt lat="42.8923" lon="0.10714">
        <ele>1626</ele>
        <time>2018-04-17T12:24:29Z</time>
      </trkpt>
      <trkpt lat="42.89251" lon="0.10718">
        <ele>1616</ele>
        <time>2018-04-17T12:24:35Z</time>
      </trkpt>
      <trkpt lat="42.89272" lon="0.10719">
        <ele>1615</ele>
        <time>2018-04-17T12:24:41Z</time>
      </trkpt>
      <trkpt lat="42.89289" lon="0.10723">
        <ele>1613</ele>
        <time>2018-04-17T12:24:44Z</time>
      </trkpt>
      <trkpt lat="42.89308" lon="0.10727">
        <ele>1611</ele>
        <time>2018-04-17T12:24:48Z</time>
      </trkpt>
      <trkpt lat="42.89327" lon="0.10737">
        <ele>1611</ele>
        <time>2018-04-17T12:24:54Z</time>
      </trkpt>
      <trkpt lat="42.89345" lon="0.10746">
        <ele>1605</ele>
        <time>2018-04-17T12:24:59Z</time>
      </trkpt>
      <trkpt lat="42.89351" lon="0.10717">
        <ele>1598</ele>
        <time>2018-04-17T12:25:31Z</time>
      </trkpt>
      <trkpt lat="42.8934" lon="0.10697">
        <ele>1595</ele>
        <time>2018-04-17T12:25:37Z</time>
      </trkpt>
      <trkpt lat="42.89362" lon="0.107">
        <ele>1594</ele>
        <time>2018-04-17T12:25:46Z</time>
      </trkpt>
      <trkpt lat="42.89373" lon="0.10679">
        <ele>1591</ele>
        <time>2018-04-17T12:26:01Z</time>
      </trkpt>
      <trkpt lat="42.89369" lon="0.10653">
        <ele>1579</ele>
        <time>2018-04-17T12:26:06Z</time>
      </trkpt>
      <trkpt lat="42.89361" lon="0.10626">
        <ele>1577</ele>
        <time>2018-04-17T12:26:12Z</time>
      </trkpt>
      <trkpt lat="42.89378" lon="0.10612">
        <ele>1573</ele>
        <time>2018-04-17T12:26:16Z</time>
      </trkpt>
      <trkpt lat="42.89397" lon="0.10615">
        <ele>1571</ele>
        <time>2018-04-17T12:27:02Z</time>
      </trkpt>
      <trkpt lat="42.89412" lon="0.106">
        <ele>1566</ele>
        <time>2018-04-17T12:27:29Z</time>
      </trkpt>
      <trkpt lat="42.8943" lon="0.10604">
        <ele>1559</ele>
        <time>2018-04-17T12:27:48Z</time>
      </trkpt>
      <trkpt lat="42.89451" lon="0.10605">
        <ele>1558</ele>
        <time>2018-04-17T12:28:13Z</time>
      </trkpt>
      <trkpt lat="42.89471" lon="0.10604">
        <ele>1557</ele>
        <time>2018-04-17T12:28:33Z</time>
      </trkpt>
      <trkpt lat="42.89485" lon="0.10588">
        <ele>1553</ele>
        <time>2018-04-17T12:28:55Z</time>
      </trkpt>
      <trkpt lat="42.89503" lon="0.10581">
        <ele>1548</ele>
        <time>2018-04-17T12:29:13Z</time>
      </trkpt>
      <trkpt lat="42.89518" lon="0.10566">
        <ele>1546</ele>
        <time>2018-04-17T12:29:34Z</time>
      </trkpt>
      <trkpt lat="42.89528" lon="0.10544">
        <ele>1545</ele>
        <time>2018-04-17T12:29:51Z</time>
      </trkpt>
      <trkpt lat="42.89539" lon="0.10524">
        <ele>1544</ele>
        <time>2018-04-17T12:30:08Z</time>
      </trkpt>
      <trkpt lat="42.8955" lon="0.10504">
        <ele>1543</ele>
        <time>2018-04-17T12:30:24Z</time>
      </trkpt>
      <trkpt lat="42.89553" lon="0.1048">
        <ele>1549</ele>
        <time>2018-04-17T12:31:02Z</time>
      </trkpt>
      <trkpt lat="42.89562" lon="0.10457">
        <ele>1550</ele>
        <time>2018-04-17T12:31:18Z</time>
      </trkpt>
      <trkpt lat="42.8958" lon="0.10451">
        <ele>1550</ele>
        <time>2018-04-17T12:31:35Z</time>
      </trkpt>
      <trkpt lat="42.89597" lon="0.10458">
        <ele>1544</ele>
        <time>2018-04-17T12:31:50Z</time>
      </trkpt>
      <trkpt lat="42.89615" lon="0.10465">
        <ele>1543</ele>
        <time>2018-04-17T12:32:08Z</time>
      </trkpt>
      <trkpt lat="42.89634" lon="0.10475">
        <ele>1542</ele>
        <time>2018-04-17T12:34:18Z</time>
      </trkpt>
      <trkpt lat="42.89655" lon="0.10477">
        <ele>1540</ele>
        <time>2018-04-17T12:34:25Z</time>
      </trkpt>
      <trkpt lat="42.89674" lon="0.10475">
        <ele>1535</ele>
        <time>2018-04-17T12:34:31Z</time>
      </trkpt>
      <trkpt lat="42.89692" lon="0.10471">
        <ele>1536</ele>
        <time>2018-04-17T12:34:37Z</time>
      </trkpt>
      <trkpt lat="42.89711" lon="0.10469">
        <ele>1535</ele>
        <time>2018-04-17T12:34:44Z</time>
      </trkpt>
      <trkpt lat="42.89729" lon="0.10474">
        <ele>1532</ele>
        <time>2018-04-17T12:34:47Z</time>
      </trkpt>
      <trkpt lat="42.89749" lon="0.10478">
        <ele>1530</ele>
        <time>2018-04-17T12:34:50Z</time>
      </trkpt>
      <trkpt lat="42.89771" lon="0.10481">
        <ele>1522</ele>
        <time>2018-04-17T12:34:54Z</time>
      </trkpt>
      <trkpt lat="42.89791" lon="0.10478">
        <ele>1520</ele>
        <time>2018-04-17T12:35:01Z</time>
      </trkpt>
      <trkpt lat="42.89808" lon="0.1047">
        <ele>1519</ele>
        <time>2018-04-17T12:35:08Z</time>
      </trkpt>
      <trkpt lat="42.89829" lon="0.10463">
        <ele>1518</ele>
        <time>2018-04-17T12:35:14Z</time>
      </trkpt>
      <trkpt lat="42.8985" lon="0.10457">
        <ele>1509</ele>
        <time>2018-04-17T12:35:18Z</time>
      </trkpt>
      <trkpt lat="42.89873" lon="0.10448">
        <ele>1507</ele>
        <time>2018-04-17T12:35:22Z</time>
      </trkpt>
      <trkpt lat="42.89891" lon="0.10441">
        <ele>1506</ele>
        <time>2018-04-17T12:35:25Z</time>
      </trkpt>
      <trkpt lat="42.89908" lon="0.10433">
        <ele>1505</ele>
        <time>2018-04-17T12:35:27Z</time>
      </trkpt>
      <trkpt lat="42.89928" lon="0.10427">
        <ele>1501</ele>
        <time>2018-04-17T12:35:29Z</time>
      </trkpt>
      <trkpt lat="42.89947" lon="0.10424">
        <ele>1500</ele>
        <time>2018-04-17T12:35:31Z</time>
      </trkpt>
      <trkpt lat="42.89973" lon="0.10419">
        <ele>1497</ele>
        <time>2018-04-17T12:35:34Z</time>
      </trkpt>
      <trkpt lat="42.89994" lon="0.10416">
        <ele>1496</ele>
        <time>2018-04-17T12:35:37Z</time>
      </trkpt>
      <trkpt lat="42.90015" lon="0.10413">
        <ele>1493</ele>
        <time>2018-04-17T12:35:41Z</time>
      </trkpt>
      <trkpt lat="42.90033" lon="0.10409">
        <ele>1493</ele>
        <time>2018-04-17T12:35:47Z</time>
      </trkpt>
      <trkpt lat="42.90054" lon="0.10403">
        <ele>1492</ele>
        <time>2018-04-17T12:35:54Z</time>
      </trkpt>
      <trkpt lat="42.90075" lon="0.10397">
        <ele>1491</ele>
        <time>2018-04-17T12:35:58Z</time>
      </trkpt>
      <trkpt lat="42.90095" lon="0.10394">
        <ele>1485</ele>
        <time>2018-04-17T12:36:01Z</time>
      </trkpt>
      <trkpt lat="42.90116" lon="0.10388">
        <ele>1485</ele>
        <time>2018-04-17T12:36:04Z</time>
      </trkpt>
      <trkpt lat="42.90137" lon="0.1038">
        <ele>1484</ele>
        <time>2018-04-17T12:36:07Z</time>
      </trkpt>
      <trkpt lat="42.90158" lon="0.10372">
        <ele>1483</ele>
        <time>2018-04-17T12:36:10Z</time>
      </trkpt>
      <trkpt lat="42.90177" lon="0.10366">
        <ele>1477</ele>
        <time>2018-04-17T12:36:13Z</time>
      </trkpt>
      <trkpt lat="42.90196" lon="0.10359">
        <ele>1476</ele>
        <time>2018-04-17T12:36:16Z</time>
      </trkpt>
      <trkpt lat="42.90215" lon="0.10352">
        <ele>1475</ele>
        <time>2018-04-17T12:36:19Z</time>
      </trkpt>
      <trkpt lat="42.90233" lon="0.10348">
        <ele>1473</ele>
        <time>2018-04-17T12:36:22Z</time>
      </trkpt>
      <trkpt lat="42.90252" lon="0.10346">
        <ele>1469</ele>
        <time>2018-04-17T12:36:25Z</time>
      </trkpt>
      <trkpt lat="42.90273" lon="0.10344">
        <ele>1469</ele>
        <time>2018-04-17T12:36:29Z</time>
      </trkpt>
      <trkpt lat="42.90291" lon="0.10335">
        <ele>1469</ele>
        <time>2018-04-17T12:36:35Z</time>
      </trkpt>
      <trkpt lat="42.9031" lon="0.10331">
        <ele>1465</ele>
        <time>2018-04-17T12:36:44Z</time>
      </trkpt>
      <trkpt lat="42.90329" lon="0.10327">
        <ele>1464</ele>
        <time>2018-04-17T12:36:51Z</time>
      </trkpt>
      <trkpt lat="42.90348" lon="0.10319">
        <ele>1462</ele>
        <time>2018-04-17T12:36:59Z</time>
      </trkpt>
      <trkpt lat="42.90366" lon="0.10315">
        <ele>1462</ele>
        <time>2018-04-17T12:38:28Z</time>
      </trkpt>
    </trkseg>
  </trk>
  <trk>
    <name><![CDATA[20180418084149-GnZwP]]></name>
    <trkseg>
      <trkpt lat="42.89623" lon="0.0824">
        <ele>1527</ele>
        <time>2018-04-05T06:18:03Z</time>
      </trkpt>
      <trkpt lat="42.89605" lon="0.08247">
        <ele>1527</ele>
        <time>2018-04-05T06:22:23Z</time>
      </trkpt>
      <trkpt lat="42.89587" lon="0.08252">
        <ele>1532</ele>
        <time>2018-04-05T06:22:39Z</time>
      </trkpt>
      <trkpt lat="42.89579" lon="0.08275">
        <ele>1534</ele>
        <time>2018-04-05T06:22:54Z</time>
      </trkpt>
      <trkpt lat="42.8958" lon="0.08247">
        <ele>1528</ele>
        <time>2018-04-05T06:24:44Z</time>
      </trkpt>
      <trkpt lat="42.896" lon="0.08273">
        <ele>1540</ele>
        <time>2018-04-05T06:24:46Z</time>
      </trkpt>
      <trkpt lat="42.89565" lon="0.08256">
        <ele>1532</ele>
        <time>2018-04-05T06:24:53Z</time>
      </trkpt>
      <trkpt lat="42.8958" lon="0.08275">
        <ele>1534</ele>
        <time>2018-04-05T06:25:03Z</time>
      </trkpt>
      <trkpt lat="42.89557" lon="0.08235">
        <ele>1520</ele>
        <time>2018-04-05T06:27:20Z</time>
      </trkpt>
      <trkpt lat="42.89569" lon="0.08255">
        <ele>1532</ele>
        <time>2018-04-05T06:27:38Z</time>
      </trkpt>
      <trkpt lat="42.89562" lon="0.08278">
        <ele>1534</ele>
        <time>2018-04-05T06:31:09Z</time>
      </trkpt>
      <trkpt lat="42.89544" lon="0.08284">
        <ele>1533</ele>
        <time>2018-04-05T06:31:30Z</time>
      </trkpt>
      <trkpt lat="42.89529" lon="0.08298">
        <ele>1534</ele>
        <time>2018-04-05T06:31:45Z</time>
      </trkpt>
      <trkpt lat="42.89515" lon="0.08317">
        <ele>1536</ele>
        <time>2018-04-05T06:31:59Z</time>
      </trkpt>
      <trkpt lat="42.89498" lon="0.08326">
        <ele>1536</ele>
        <time>2018-04-05T06:32:14Z</time>
      </trkpt>
      <trkpt lat="42.89482" lon="0.0834">
        <ele>1545</ele>
        <time>2018-04-05T06:32:28Z</time>
      </trkpt>
      <trkpt lat="42.89469" lon="0.08322">
        <ele>1530</ele>
        <time>2018-04-05T06:32:50Z</time>
      </trkpt>
      <trkpt lat="42.89465" lon="0.08298">
        <ele>1527</ele>
        <time>2018-04-05T06:33:04Z</time>
      </trkpt>
      <trkpt lat="42.89449" lon="0.08283">
        <ele>1525</ele>
        <time>2018-04-05T06:33:20Z</time>
      </trkpt>
      <trkpt lat="42.8943" lon="0.08277">
        <ele>1524</ele>
        <time>2018-04-05T06:33:31Z</time>
      </trkpt>
      <trkpt lat="42.89412" lon="0.08273">
        <ele>1524</ele>
        <time>2018-04-05T06:33:45Z</time>
      </trkpt>
      <trkpt lat="42.89395" lon="0.08263">
        <ele>1524</ele>
        <time>2018-04-05T06:33:59Z</time>
      </trkpt>
      <trkpt lat="42.89392" lon="0.08238">
        <ele>1521</ele>
        <time>2018-04-05T06:34:18Z</time>
      </trkpt>
      <trkpt lat="42.89396" lon="0.08213">
        <ele>1521</ele>
        <time>2018-04-05T06:34:34Z</time>
      </trkpt>
      <trkpt lat="42.89405" lon="0.0819">
        <ele>1520</ele>
        <time>2018-04-05T06:34:52Z</time>
      </trkpt>
      <trkpt lat="42.89415" lon="0.08168">
        <ele>1517</ele>
        <time>2018-04-05T06:35:09Z</time>
      </trkpt>
      <trkpt lat="42.89415" lon="0.08143">
        <ele>1521</ele>
        <time>2018-04-05T06:35:30Z</time>
      </trkpt>
      <trkpt lat="42.894" lon="0.08128">
        <ele>1522</ele>
        <time>2018-04-05T06:35:54Z</time>
      </trkpt>
      <trkpt lat="42.89381" lon="0.08127">
        <ele>1524</ele>
        <time>2018-04-05T06:36:21Z</time>
      </trkpt>
      <trkpt lat="42.89365" lon="0.08136">
        <ele>1525</ele>
        <time>2018-04-05T06:36:46Z</time>
      </trkpt>
      <trkpt lat="42.89347" lon="0.08145">
        <ele>1526</ele>
        <time>2018-04-05T06:37:10Z</time>
      </trkpt>
      <trkpt lat="42.8933" lon="0.08153">
        <ele>1535</ele>
        <time>2018-04-05T06:37:34Z</time>
      </trkpt>
      <trkpt lat="42.89313" lon="0.08162">
        <ele>1537</ele>
        <time>2018-04-05T06:38:00Z</time>
      </trkpt>
      <trkpt lat="42.89296" lon="0.0817">
        <ele>1537</ele>
        <time>2018-04-05T06:38:20Z</time>
      </trkpt>
      <trkpt lat="42.89278" lon="0.08171">
        <ele>1540</ele>
        <time>2018-04-05T06:38:41Z</time>
      </trkpt>
      <trkpt lat="42.89259" lon="0.08171">
        <ele>1545</ele>
        <time>2018-04-05T06:39:09Z</time>
      </trkpt>
      <trkpt lat="42.89243" lon="0.08183">
        <ele>1554</ele>
        <time>2018-04-05T06:39:30Z</time>
      </trkpt>
      <trkpt lat="42.89228" lon="0.08195">
        <ele>1557</ele>
        <time>2018-04-05T06:39:55Z</time>
      </trkpt>
      <trkpt lat="42.89212" lon="0.08208">
        <ele>1558</ele>
        <time>2018-04-05T06:40:19Z</time>
      </trkpt>
      <trkpt lat="42.89196" lon="0.0822">
        <ele>1559</ele>
        <time>2018-04-05T06:40:40Z</time>
      </trkpt>
      <trkpt lat="42.89179" lon="0.08231">
        <ele>1560</ele>
        <time>2018-04-05T06:41:00Z</time>
      </trkpt>
      <trkpt lat="42.89164" lon="0.08244">
        <ele>1564</ele>
        <time>2018-04-05T06:41:21Z</time>
      </trkpt>
      <trkpt lat="42.89147" lon="0.08256">
        <ele>1560</ele>
        <time>2018-04-05T06:41:46Z</time>
      </trkpt>
      <trkpt lat="42.8913" lon="0.08262">
        <ele>1561</ele>
        <time>2018-04-05T06:42:09Z</time>
      </trkpt>
      <trkpt lat="42.89111" lon="0.08268">
        <ele>1563</ele>
        <time>2018-04-05T06:42:28Z</time>
      </trkpt>
      <trkpt lat="42.89093" lon="0.08275">
        <ele>1564</ele>
        <time>2018-04-05T06:42:53Z</time>
      </trkpt>
      <trkpt lat="42.89074" lon="0.0828">
        <ele>1572</ele>
        <time>2018-04-05T06:43:17Z</time>
      </trkpt>
      <trkpt lat="42.89057" lon="0.08288">
        <ele>1572</ele>
        <time>2018-04-05T06:43:38Z</time>
      </trkpt>
      <trkpt lat="42.89037" lon="0.08289">
        <ele>1573</ele>
        <time>2018-04-05T06:44:04Z</time>
      </trkpt>
      <trkpt lat="42.89019" lon="0.08295">
        <ele>1573</ele>
        <time>2018-04-05T06:44:20Z</time>
      </trkpt>
      <trkpt lat="42.89" lon="0.08296">
        <ele>1574</ele>
        <time>2018-04-05T06:44:37Z</time>
      </trkpt>
      <trkpt lat="42.88983" lon="0.08304">
        <ele>1579</ele>
        <time>2018-04-05T06:44:56Z</time>
      </trkpt>
      <trkpt lat="42.88964" lon="0.08309">
        <ele>1580</ele>
        <time>2018-04-05T06:45:24Z</time>
      </trkpt>
      <trkpt lat="42.88946" lon="0.08316">
        <ele>1579</ele>
        <time>2018-04-05T06:45:42Z</time>
      </trkpt>
      <trkpt lat="42.88928" lon="0.08316">
        <ele>1579</ele>
        <time>2018-04-05T06:46:01Z</time>
      </trkpt>
      <trkpt lat="42.8891" lon="0.08316">
        <ele>1581</ele>
        <time>2018-04-05T06:46:18Z</time>
      </trkpt>
      <trkpt lat="42.88892" lon="0.08313">
        <ele>1585</ele>
        <time>2018-04-05T06:46:34Z</time>
      </trkpt>
      <trkpt lat="42.88873" lon="0.08308">
        <ele>1587</ele>
        <time>2018-04-05T06:46:52Z</time>
      </trkpt>
      <trkpt lat="42.88854" lon="0.08312">
        <ele>1585</ele>
        <time>2018-04-05T06:47:20Z</time>
      </trkpt>
      <trkpt lat="42.88839" lon="0.08328">
        <ele>1579</ele>
        <time>2018-04-05T06:47:37Z</time>
      </trkpt>
      <trkpt lat="42.88824" lon="0.08343">
        <ele>1574</ele>
        <time>2018-04-05T06:47:56Z</time>
      </trkpt>
      <trkpt lat="42.88806" lon="0.08342">
        <ele>1574</ele>
        <time>2018-04-05T06:48:41Z</time>
      </trkpt>
      <trkpt lat="42.88788" lon="0.08343">
        <ele>1575</ele>
        <time>2018-04-05T06:49:00Z</time>
      </trkpt>
      <trkpt lat="42.88769" lon="0.0834">
        <ele>1577</ele>
        <time>2018-04-05T06:50:07Z</time>
      </trkpt>
      <trkpt lat="42.8875" lon="0.08346">
        <ele>1578</ele>
        <time>2018-04-05T06:50:34Z</time>
      </trkpt>
      <trkpt lat="42.88732" lon="0.08347">
        <ele>1577</ele>
        <time>2018-04-05T06:51:13Z</time>
      </trkpt>
      <trkpt lat="42.88715" lon="0.08338">
        <ele>1575</ele>
        <time>2018-04-05T06:51:41Z</time>
      </trkpt>
      <trkpt lat="42.88696" lon="0.08334">
        <ele>1574</ele>
        <time>2018-04-05T06:52:01Z</time>
      </trkpt>
      <trkpt lat="42.8868" lon="0.08323">
        <ele>1580</ele>
        <time>2018-04-05T06:52:22Z</time>
      </trkpt>
      <trkpt lat="42.88671" lon="0.08301">
        <ele>1584</ele>
        <time>2018-04-05T06:52:49Z</time>
      </trkpt>
      <trkpt lat="42.88653" lon="0.08299">
        <ele>1581</ele>
        <time>2018-04-05T06:57:57Z</time>
      </trkpt>
      <trkpt lat="42.88635" lon="0.08293">
        <ele>1581</ele>
        <time>2018-04-05T06:58:15Z</time>
      </trkpt>
      <trkpt lat="42.88616" lon="0.08293">
        <ele>1581</ele>
        <time>2018-04-05T06:58:34Z</time>
      </trkpt>
      <trkpt lat="42.88597" lon="0.0829">
        <ele>1581</ele>
        <time>2018-04-05T06:58:54Z</time>
      </trkpt>
      <trkpt lat="42.8858" lon="0.08283">
        <ele>1581</ele>
        <time>2018-04-05T06:59:13Z</time>
      </trkpt>
      <trkpt lat="42.88563" lon="0.08276">
        <ele>1581</ele>
        <time>2018-04-05T06:59:35Z</time>
      </trkpt>
      <trkpt lat="42.88544" lon="0.08269">
        <ele>1581</ele>
        <time>2018-04-05T06:59:56Z</time>
      </trkpt>
      <trkpt lat="42.88526" lon="0.08264">
        <ele>1581</ele>
        <time>2018-04-05T07:00:18Z</time>
      </trkpt>
      <trkpt lat="42.88511" lon="0.08252">
        <ele>1582</ele>
        <time>2018-04-05T07:00:38Z</time>
      </trkpt>
      <trkpt lat="42.88494" lon="0.08241">
        <ele>1587</ele>
        <time>2018-04-05T07:00:58Z</time>
      </trkpt>
      <trkpt lat="42.88476" lon="0.08233">
        <ele>1590</ele>
        <time>2018-04-05T07:01:18Z</time>
      </trkpt>
      <trkpt lat="42.88459" lon="0.08226">
        <ele>1591</ele>
        <time>2018-04-05T07:01:40Z</time>
      </trkpt>
      <trkpt lat="42.88441" lon="0.08221">
        <ele>1591</ele>
        <time>2018-04-05T07:02:04Z</time>
      </trkpt>
      <trkpt lat="42.88422" lon="0.08219">
        <ele>1590</ele>
        <time>2018-04-05T07:02:25Z</time>
      </trkpt>
      <trkpt lat="42.88404" lon="0.08211">
        <ele>1593</ele>
        <time>2018-04-05T07:02:53Z</time>
      </trkpt>
      <trkpt lat="42.88386" lon="0.08216">
        <ele>1592</ele>
        <time>2018-04-05T07:03:15Z</time>
      </trkpt>
      <trkpt lat="42.88367" lon="0.08217">
        <ele>1593</ele>
        <time>2018-04-05T07:03:37Z</time>
      </trkpt>
      <trkpt lat="42.88349" lon="0.08215">
        <ele>1593</ele>
        <time>2018-04-05T07:03:57Z</time>
      </trkpt>
      <trkpt lat="42.88331" lon="0.08214">
        <ele>1596</ele>
        <time>2018-04-05T07:04:20Z</time>
      </trkpt>
      <trkpt lat="42.88312" lon="0.08216">
        <ele>1596</ele>
        <time>2018-04-05T07:04:40Z</time>
      </trkpt>
      <trkpt lat="42.88294" lon="0.08216">
        <ele>1596</ele>
        <time>2018-04-05T07:04:59Z</time>
      </trkpt>
      <trkpt lat="42.88275" lon="0.08216">
        <ele>1597</ele>
        <time>2018-04-05T07:05:24Z</time>
      </trkpt>
      <trkpt lat="42.88257" lon="0.08218">
        <ele>1596</ele>
        <time>2018-04-05T07:05:45Z</time>
      </trkpt>
      <trkpt lat="42.88239" lon="0.08221">
        <ele>1599</ele>
        <time>2018-04-05T07:06:07Z</time>
      </trkpt>
      <trkpt lat="42.88221" lon="0.08225">
        <ele>1600</ele>
        <time>2018-04-05T07:06:27Z</time>
      </trkpt>
      <trkpt lat="42.88204" lon="0.08218">
        <ele>1603</ele>
        <time>2018-04-05T07:06:50Z</time>
      </trkpt>
      <trkpt lat="42.88185" lon="0.08213">
        <ele>1604</ele>
        <time>2018-04-05T07:07:13Z</time>
      </trkpt>
      <trkpt lat="42.88166" lon="0.08211">
        <ele>1612</ele>
        <time>2018-04-05T07:07:36Z</time>
      </trkpt>
      <trkpt lat="42.88151" lon="0.08225">
        <ele>1610</ele>
        <time>2018-04-05T07:07:58Z</time>
      </trkpt>
      <trkpt lat="42.88132" lon="0.08223">
        <ele>1612</ele>
        <time>2018-04-05T07:08:18Z</time>
      </trkpt>
      <trkpt lat="42.88114" lon="0.08222">
        <ele>1614</ele>
        <time>2018-04-05T07:08:40Z</time>
      </trkpt>
      <trkpt lat="42.88096" lon="0.08227">
        <ele>1615</ele>
        <time>2018-04-05T07:09:00Z</time>
      </trkpt>
      <trkpt lat="42.88082" lon="0.08242">
        <ele>1618</ele>
        <time>2018-04-05T07:09:23Z</time>
      </trkpt>
      <trkpt lat="42.88064" lon="0.0825">
        <ele>1622</ele>
        <time>2018-04-05T07:09:45Z</time>
      </trkpt>
      <trkpt lat="42.88047" lon="0.08261">
        <ele>1613</ele>
        <time>2018-04-05T07:10:09Z</time>
      </trkpt>
      <trkpt lat="42.88029" lon="0.08268">
        <ele>1615</ele>
        <time>2018-04-05T07:10:33Z</time>
      </trkpt>
      <trkpt lat="42.88013" lon="0.0828">
        <ele>1615</ele>
        <time>2018-04-05T07:10:55Z</time>
      </trkpt>
      <trkpt lat="42.87996" lon="0.08292">
        <ele>1623</ele>
        <time>2018-04-05T07:11:16Z</time>
      </trkpt>
      <trkpt lat="42.87978" lon="0.08299">
        <ele>1623</ele>
        <time>2018-04-05T07:11:40Z</time>
      </trkpt>
      <trkpt lat="42.87959" lon="0.08299">
        <ele>1625</ele>
        <time>2018-04-05T07:12:02Z</time>
      </trkpt>
      <trkpt lat="42.87945" lon="0.08283">
        <ele>1628</ele>
        <time>2018-04-05T07:12:24Z</time>
      </trkpt>
      <trkpt lat="42.87926" lon="0.08281">
        <ele>1630</ele>
        <time>2018-04-05T07:12:45Z</time>
      </trkpt>
      <trkpt lat="42.87909" lon="0.0829">
        <ele>1636</ele>
        <time>2018-04-05T07:13:04Z</time>
      </trkpt>
      <trkpt lat="42.87893" lon="0.08302">
        <ele>1635</ele>
        <time>2018-04-05T07:13:21Z</time>
      </trkpt>
      <trkpt lat="42.87876" lon="0.08311">
        <ele>1635</ele>
        <time>2018-04-05T07:13:40Z</time>
      </trkpt>
      <trkpt lat="42.87859" lon="0.08321">
        <ele>1634</ele>
        <time>2018-04-05T07:14:02Z</time>
      </trkpt>
      <trkpt lat="42.87845" lon="0.08337">
        <ele>1627</ele>
        <time>2018-04-05T07:14:23Z</time>
      </trkpt>
      <trkpt lat="42.8783" lon="0.08352">
        <ele>1630</ele>
        <time>2018-04-05T07:14:42Z</time>
      </trkpt>
      <trkpt lat="42.87813" lon="0.08362">
        <ele>1631</ele>
        <time>2018-04-05T07:15:01Z</time>
      </trkpt>
      <trkpt lat="42.87796" lon="0.08373">
        <ele>1632</ele>
        <time>2018-04-05T07:15:22Z</time>
      </trkpt>
      <trkpt lat="42.87778" lon="0.0838">
        <ele>1633</ele>
        <time>2018-04-05T07:15:43Z</time>
      </trkpt>
      <trkpt lat="42.87761" lon="0.08389">
        <ele>1634</ele>
        <time>2018-04-05T07:16:03Z</time>
      </trkpt>
      <trkpt lat="42.87742" lon="0.08393">
        <ele>1640</ele>
        <time>2018-04-05T07:16:22Z</time>
      </trkpt>
      <trkpt lat="42.87724" lon="0.084">
        <ele>1640</ele>
        <time>2018-04-05T07:16:41Z</time>
      </trkpt>
      <trkpt lat="42.87705" lon="0.08401">
        <ele>1641</ele>
        <time>2018-04-05T07:17:00Z</time>
      </trkpt>
      <trkpt lat="42.87687" lon="0.08404">
        <ele>1641</ele>
        <time>2018-04-05T07:17:18Z</time>
      </trkpt>
      <trkpt lat="42.87668" lon="0.08406">
        <ele>1640</ele>
        <time>2018-04-05T07:17:41Z</time>
      </trkpt>
      <trkpt lat="42.87651" lon="0.08413">
        <ele>1645</ele>
        <time>2018-04-05T07:18:01Z</time>
      </trkpt>
      <trkpt lat="42.87633" lon="0.08423">
        <ele>1639</ele>
        <time>2018-04-05T07:18:22Z</time>
      </trkpt>
      <trkpt lat="42.87615" lon="0.08427">
        <ele>1641</ele>
        <time>2018-04-05T07:18:43Z</time>
      </trkpt>
      <trkpt lat="42.87597" lon="0.08429">
        <ele>1642</ele>
        <time>2018-04-05T07:19:03Z</time>
      </trkpt>
      <trkpt lat="42.87578" lon="0.08433">
        <ele>1648</ele>
        <time>2018-04-05T07:19:33Z</time>
      </trkpt>
      <trkpt lat="42.87561" lon="0.08438">
        <ele>1650</ele>
        <time>2018-04-05T07:19:53Z</time>
      </trkpt>
      <trkpt lat="42.87546" lon="0.08452">
        <ele>1651</ele>
        <time>2018-04-05T07:20:13Z</time>
      </trkpt>
      <trkpt lat="42.87532" lon="0.08469">
        <ele>1651</ele>
        <time>2018-04-05T07:20:36Z</time>
      </trkpt>
      <trkpt lat="42.87515" lon="0.08478">
        <ele>1651</ele>
        <time>2018-04-05T07:20:57Z</time>
      </trkpt>
      <trkpt lat="42.87505" lon="0.085">
        <ele>1650</ele>
        <time>2018-04-05T07:21:19Z</time>
      </trkpt>
      <trkpt lat="42.87489" lon="0.08512">
        <ele>1653</ele>
        <time>2018-04-05T07:21:39Z</time>
      </trkpt>
      <trkpt lat="42.87472" lon="0.08516">
        <ele>1656</ele>
        <time>2018-04-05T07:21:58Z</time>
      </trkpt>
      <trkpt lat="42.87453" lon="0.08517">
        <ele>1658</ele>
        <time>2018-04-05T07:22:21Z</time>
      </trkpt>
      <trkpt lat="42.87436" lon="0.08522">
        <ele>1661</ele>
        <time>2018-04-05T07:22:41Z</time>
      </trkpt>
      <trkpt lat="42.8742" lon="0.08533">
        <ele>1661</ele>
        <time>2018-04-05T07:22:59Z</time>
      </trkpt>
      <trkpt lat="42.87404" lon="0.08547">
        <ele>1673</ele>
        <time>2018-04-05T07:23:27Z</time>
      </trkpt>
      <trkpt lat="42.8739" lon="0.08564">
        <ele>1672</ele>
        <time>2018-04-05T07:23:52Z</time>
      </trkpt>
      <trkpt lat="42.87373" lon="0.08552">
        <ele>1677</ele>
        <time>2018-04-05T07:24:19Z</time>
      </trkpt>
      <trkpt lat="42.8736" lon="0.08573">
        <ele>1678</ele>
        <time>2018-04-05T07:24:49Z</time>
      </trkpt>
      <trkpt lat="42.87346" lon="0.08589">
        <ele>1677</ele>
        <time>2018-04-05T07:25:13Z</time>
      </trkpt>
      <trkpt lat="42.8733" lon="0.08602">
        <ele>1684</ele>
        <time>2018-04-05T07:25:35Z</time>
      </trkpt>
      <trkpt lat="42.87314" lon="0.08615">
        <ele>1685</ele>
        <time>2018-04-05T07:25:59Z</time>
      </trkpt>
      <trkpt lat="42.87295" lon="0.08613">
        <ele>1686</ele>
        <time>2018-04-05T07:26:24Z</time>
      </trkpt>
      <trkpt lat="42.87279" lon="0.08601">
        <ele>1687</ele>
        <time>2018-04-05T07:26:45Z</time>
      </trkpt>
      <trkpt lat="42.87261" lon="0.08597">
        <ele>1689</ele>
        <time>2018-04-05T07:27:05Z</time>
      </trkpt>
      <trkpt lat="42.87243" lon="0.08603">
        <ele>1696</ele>
        <time>2018-04-05T07:27:28Z</time>
      </trkpt>
      <trkpt lat="42.87227" lon="0.08614">
        <ele>1698</ele>
        <time>2018-04-05T07:27:50Z</time>
      </trkpt>
      <trkpt lat="42.87208" lon="0.0861">
        <ele>1700</ele>
        <time>2018-04-05T07:28:29Z</time>
      </trkpt>
      <trkpt lat="42.8719" lon="0.08616">
        <ele>1702</ele>
        <time>2018-04-05T07:28:57Z</time>
      </trkpt>
      <trkpt lat="42.87173" lon="0.08626">
        <ele>1703</ele>
        <time>2018-04-05T07:29:29Z</time>
      </trkpt>
      <trkpt lat="42.87156" lon="0.08631">
        <ele>1719</ele>
        <time>2018-04-05T07:29:57Z</time>
      </trkpt>
      <trkpt lat="42.87137" lon="0.08633">
        <ele>1721</ele>
        <time>2018-04-05T07:30:33Z</time>
      </trkpt>
      <trkpt lat="42.87127" lon="0.08611">
        <ele>1724</ele>
        <time>2018-04-05T07:31:28Z</time>
      </trkpt>
      <trkpt lat="42.87108" lon="0.08613">
        <ele>1727</ele>
        <time>2018-04-05T07:32:01Z</time>
      </trkpt>
      <trkpt lat="42.8709" lon="0.08621">
        <ele>1729</ele>
        <time>2018-04-05T07:32:33Z</time>
      </trkpt>
      <trkpt lat="42.87073" lon="0.08611">
        <ele>1750</ele>
        <time>2018-04-05T07:33:21Z</time>
      </trkpt>
      <trkpt lat="42.87055" lon="0.0862">
        <ele>1753</ele>
        <time>2018-04-05T07:34:00Z</time>
      </trkpt>
      <trkpt lat="42.87039" lon="0.08631">
        <ele>1756</ele>
        <time>2018-04-05T07:34:30Z</time>
      </trkpt>
      <trkpt lat="42.87025" lon="0.08615">
        <ele>1760</ele>
        <time>2018-04-05T07:35:48Z</time>
      </trkpt>
      <trkpt lat="42.87008" lon="0.08623">
        <ele>1762</ele>
        <time>2018-04-05T07:36:33Z</time>
      </trkpt>
      <trkpt lat="42.86992" lon="0.08637">
        <ele>1784</ele>
        <time>2018-04-05T07:37:08Z</time>
      </trkpt>
      <trkpt lat="42.86974" lon="0.08635">
        <ele>1788</ele>
        <time>2018-04-05T07:38:26Z</time>
      </trkpt>
      <trkpt lat="42.86964" lon="0.08614">
        <ele>1792</ele>
        <time>2018-04-05T07:39:51Z</time>
      </trkpt>
      <trkpt lat="42.86949" lon="0.08628">
        <ele>1795</ele>
        <time>2018-04-05T07:40:36Z</time>
      </trkpt>
      <trkpt lat="42.86945" lon="0.08605">
        <ele>1798</ele>
        <time>2018-04-05T07:41:13Z</time>
      </trkpt>
      <trkpt lat="42.86927" lon="0.08611">
        <ele>1802</ele>
        <time>2018-04-05T07:42:24Z</time>
      </trkpt>
      <trkpt lat="42.8691" lon="0.08601">
        <ele>1826</ele>
        <time>2018-04-05T07:44:01Z</time>
      </trkpt>
      <trkpt lat="42.86894" lon="0.08614">
        <ele>1830</ele>
        <time>2018-04-05T07:44:33Z</time>
      </trkpt>
      <trkpt lat="42.86877" lon="0.08626">
        <ele>1833</ele>
        <time>2018-04-05T07:45:15Z</time>
      </trkpt>
      <trkpt lat="42.86869" lon="0.08648">
        <ele>1834</ele>
        <time>2018-04-05T07:50:27Z</time>
      </trkpt>
      <trkpt lat="42.86851" lon="0.08654">
        <ele>1840</ele>
        <time>2018-04-05T07:53:14Z</time>
      </trkpt>
      <trkpt lat="42.86836" lon="0.08669">
        <ele>1846</ele>
        <time>2018-04-05T07:53:46Z</time>
      </trkpt>
      <trkpt lat="42.86822" lon="0.08686">
        <ele>1854</ele>
        <time>2018-04-05T07:54:13Z</time>
      </trkpt>
      <trkpt lat="42.86805" lon="0.08695">
        <ele>1856</ele>
        <time>2018-04-05T07:54:41Z</time>
      </trkpt>
      <trkpt lat="42.86789" lon="0.08705">
        <ele>1859</ele>
        <time>2018-04-05T07:55:14Z</time>
      </trkpt>
      <trkpt lat="42.86771" lon="0.0871">
        <ele>1861</ele>
        <time>2018-04-05T07:55:44Z</time>
      </trkpt>
      <trkpt lat="42.86753" lon="0.08707">
        <ele>1864</ele>
        <time>2018-04-05T07:56:13Z</time>
      </trkpt>
      <trkpt lat="42.86736" lon="0.08717">
        <ele>1884</ele>
        <time>2018-04-05T07:56:45Z</time>
      </trkpt>
      <trkpt lat="42.86725" lon="0.08737">
        <ele>1882</ele>
        <time>2018-04-05T07:57:12Z</time>
      </trkpt>
      <trkpt lat="42.86707" lon="0.08745">
        <ele>1887</ele>
        <time>2018-04-05T07:57:39Z</time>
      </trkpt>
      <trkpt lat="42.86689" lon="0.08748">
        <ele>1891</ele>
        <time>2018-04-05T07:58:10Z</time>
      </trkpt>
      <trkpt lat="42.86671" lon="0.08742">
        <ele>1894</ele>
        <time>2018-04-05T07:58:45Z</time>
      </trkpt>
      <trkpt lat="42.86653" lon="0.08743">
        <ele>1911</ele>
        <time>2018-04-05T07:59:19Z</time>
      </trkpt>
      <trkpt lat="42.86636" lon="0.08751">
        <ele>1912</ele>
        <time>2018-04-05T07:59:47Z</time>
      </trkpt>
      <trkpt lat="42.86621" lon="0.08765">
        <ele>1918</ele>
        <time>2018-04-05T08:00:24Z</time>
      </trkpt>
      <trkpt lat="42.86609" lon="0.08784">
        <ele>1920</ele>
        <time>2018-04-05T08:00:59Z</time>
      </trkpt>
      <trkpt lat="42.86597" lon="0.08803">
        <ele>1921</ele>
        <time>2018-04-05T08:01:31Z</time>
      </trkpt>
      <trkpt lat="42.86586" lon="0.08825">
        <ele>1925</ele>
        <time>2018-04-05T08:02:08Z</time>
      </trkpt>
      <trkpt lat="42.86568" lon="0.08825">
        <ele>1948</ele>
        <time>2018-04-05T08:03:15Z</time>
      </trkpt>
      <trkpt lat="42.86567" lon="0.08849">
        <ele>1950</ele>
        <time>2018-04-05T08:03:54Z</time>
      </trkpt>
      <trkpt lat="42.86571" lon="0.08873">
        <ele>1954</ele>
        <time>2018-04-05T08:04:28Z</time>
      </trkpt>
      <trkpt lat="42.86552" lon="0.08874">
        <ele>1960</ele>
        <time>2018-04-05T08:05:26Z</time>
      </trkpt>
      <trkpt lat="42.86536" lon="0.08863">
        <ele>1966</ele>
        <time>2018-04-05T08:05:56Z</time>
      </trkpt>
      <trkpt lat="42.86538" lon="0.08888">
        <ele>1966</ele>
        <time>2018-04-05T08:06:39Z</time>
      </trkpt>
      <trkpt lat="42.86541" lon="0.08913">
        <ele>1966</ele>
        <time>2018-04-05T08:07:15Z</time>
      </trkpt>
      <trkpt lat="42.86538" lon="0.08938">
        <ele>1972</ele>
        <time>2018-04-05T08:07:53Z</time>
      </trkpt>
      <trkpt lat="42.8653" lon="0.0896">
        <ele>1975</ele>
        <time>2018-04-05T08:08:26Z</time>
      </trkpt>
      <trkpt lat="42.8652" lon="0.08982">
        <ele>1981</ele>
        <time>2018-04-05T08:09:05Z</time>
      </trkpt>
      <trkpt lat="42.86506" lon="0.08997">
        <ele>1992</ele>
        <time>2018-04-05T08:09:41Z</time>
      </trkpt>
      <trkpt lat="42.8649" lon="0.0901">
        <ele>2003</ele>
        <time>2018-04-05T08:10:22Z</time>
      </trkpt>
      <trkpt lat="42.86472" lon="0.09017">
        <ele>2007</ele>
        <time>2018-04-05T08:10:54Z</time>
      </trkpt>
      <trkpt lat="42.86464" lon="0.08994">
        <ele>2012</ele>
        <time>2018-04-05T08:11:34Z</time>
      </trkpt>
      <trkpt lat="42.86447" lon="0.09004">
        <ele>2014</ele>
        <time>2018-04-05T08:12:04Z</time>
      </trkpt>
      <trkpt lat="42.86435" lon="0.08986">
        <ele>2020</ele>
        <time>2018-04-05T08:12:36Z</time>
      </trkpt>
      <trkpt lat="42.86416" lon="0.08986">
        <ele>2035</ele>
        <time>2018-04-05T08:13:05Z</time>
      </trkpt>
      <trkpt lat="42.86399" lon="0.08994">
        <ele>2038</ele>
        <time>2018-04-05T08:13:41Z</time>
      </trkpt>
      <trkpt lat="42.86385" lon="0.0898">
        <ele>2044</ele>
        <time>2018-04-05T08:14:17Z</time>
      </trkpt>
      <trkpt lat="42.86375" lon="0.08958">
        <ele>2047</ele>
        <time>2018-04-05T08:14:53Z</time>
      </trkpt>
      <trkpt lat="42.86361" lon="0.08975">
        <ele>2049</ele>
        <time>2018-04-05T08:15:36Z</time>
      </trkpt>
      <trkpt lat="42.86346" lon="0.08989">
        <ele>2054</ele>
        <time>2018-04-05T08:16:48Z</time>
      </trkpt>
      <trkpt lat="42.86328" lon="0.08994">
        <ele>2066</ele>
        <time>2018-04-05T08:18:55Z</time>
      </trkpt>
      <trkpt lat="42.8631" lon="0.08995">
        <ele>2075</ele>
        <time>2018-04-05T08:20:10Z</time>
      </trkpt>
      <trkpt lat="42.86292" lon="0.08997">
        <ele>2082</ele>
        <time>2018-04-05T08:21:09Z</time>
      </trkpt>
      <trkpt lat="42.86274" lon="0.09001">
        <ele>2083</ele>
        <time>2018-04-05T08:21:44Z</time>
      </trkpt>
      <trkpt lat="42.86256" lon="0.09">
        <ele>2097</ele>
        <time>2018-04-05T08:22:19Z</time>
      </trkpt>
      <trkpt lat="42.86237" lon="0.08997">
        <ele>2108</ele>
        <time>2018-04-05T08:22:44Z</time>
      </trkpt>
      <trkpt lat="42.8622" lon="0.09003">
        <ele>2105</ele>
        <time>2018-04-05T08:23:18Z</time>
      </trkpt>
      <trkpt lat="42.86205" lon="0.09017">
        <ele>2107</ele>
        <time>2018-04-05T08:23:51Z</time>
      </trkpt>
      <trkpt lat="42.86189" lon="0.09033">
        <ele>2108</ele>
        <time>2018-04-05T08:24:28Z</time>
      </trkpt>
      <trkpt lat="42.86173" lon="0.09045">
        <ele>2108</ele>
        <time>2018-04-05T08:25:04Z</time>
      </trkpt>
      <trkpt lat="42.86156" lon="0.09053">
        <ele>2124</ele>
        <time>2018-04-05T08:25:42Z</time>
      </trkpt>
      <trkpt lat="42.8614" lon="0.09065">
        <ele>2125</ele>
        <time>2018-04-05T08:26:30Z</time>
      </trkpt>
      <trkpt lat="42.86121" lon="0.09067">
        <ele>2129</ele>
        <time>2018-04-05T08:27:04Z</time>
      </trkpt>
      <trkpt lat="42.86103" lon="0.0907">
        <ele>2132</ele>
        <time>2018-04-05T08:27:37Z</time>
      </trkpt>
      <trkpt lat="42.86088" lon="0.09056">
        <ele>2134</ele>
        <time>2018-04-05T08:46:39Z</time>
      </trkpt>
      <trkpt lat="42.86075" lon="0.09037">
        <ele>2146</ele>
        <time>2018-04-05T08:46:57Z</time>
      </trkpt>
      <trkpt lat="42.86059" lon="0.09025">
        <ele>2148</ele>
        <time>2018-04-05T08:47:20Z</time>
      </trkpt>
      <trkpt lat="42.86043" lon="0.09012">
        <ele>2149</ele>
        <time>2018-04-05T08:47:43Z</time>
      </trkpt>
      <trkpt lat="42.86034" lon="0.0899">
        <ele>2159</ele>
        <time>2018-04-05T08:48:13Z</time>
      </trkpt>
      <trkpt lat="42.86018" lon="0.09">
        <ele>2159</ele>
        <time>2018-04-05T08:48:41Z</time>
      </trkpt>
      <trkpt lat="42.86002" lon="0.09012">
        <ele>2153</ele>
        <time>2018-04-05T08:49:12Z</time>
      </trkpt>
      <trkpt lat="42.85983" lon="0.09018">
        <ele>2149</ele>
        <time>2018-04-05T08:49:43Z</time>
      </trkpt>
      <trkpt lat="42.85969" lon="0.09003">
        <ele>2148</ele>
        <time>2018-04-05T08:50:33Z</time>
      </trkpt>
      <trkpt lat="42.85957" lon="0.08982">
        <ele>2147</ele>
        <time>2018-04-05T08:50:42Z</time>
      </trkpt>
      <trkpt lat="42.85942" lon="0.08995">
        <ele>2145</ele>
        <time>2018-04-05T08:50:58Z</time>
      </trkpt>
      <trkpt lat="42.8594" lon="0.0902">
        <ele>2145</ele>
        <time>2018-04-05T08:51:22Z</time>
      </trkpt>
      <trkpt lat="42.85931" lon="0.09042">
        <ele>2143</ele>
        <time>2018-04-05T08:51:53Z</time>
      </trkpt>
      <trkpt lat="42.85916" lon="0.09057">
        <ele>2141</ele>
        <time>2018-04-05T08:52:17Z</time>
      </trkpt>
      <trkpt lat="42.85894" lon="0.09061">
        <ele>2141</ele>
        <time>2018-04-05T08:52:38Z</time>
      </trkpt>
      <trkpt lat="42.85878" lon="0.09072">
        <ele>2142</ele>
        <time>2018-04-05T08:52:55Z</time>
      </trkpt>
      <trkpt lat="42.85859" lon="0.0907">
        <ele>2143</ele>
        <time>2018-04-05T08:53:08Z</time>
      </trkpt>
      <trkpt lat="42.85848" lon="0.09046">
        <ele>2140</ele>
        <time>2018-04-05T08:53:17Z</time>
      </trkpt>
      <trkpt lat="42.85831" lon="0.09037">
        <ele>2141</ele>
        <time>2018-04-05T08:53:46Z</time>
      </trkpt>
      <trkpt lat="42.8582" lon="0.09057">
        <ele>2145</ele>
        <time>2018-04-05T08:54:31Z</time>
      </trkpt>
      <trkpt lat="42.8581" lon="0.09079">
        <ele>2147</ele>
        <time>2018-04-05T08:54:58Z</time>
      </trkpt>
      <trkpt lat="42.85796" lon="0.09094">
        <ele>2155</ele>
        <time>2018-04-05T08:55:29Z</time>
      </trkpt>
      <trkpt lat="42.85796" lon="0.0907">
        <ele>2148</ele>
      </trkpt>
    </trkseg>
  </trk>
</gpx>